Return to Metar
SPECI CYNL 281825Z AUTO 15014G19KT 3SM VV008 05/05 A2966 RMK AO1 PRESFR SLP063
SPECI CYNL 281824Z AUTO 15013G19KT 2SM VV008 05/05 A2966 RMK AO1 PRESFR SLP064
SPECI CYNL 281820Z AUTO 16013G20KT 1 3/4SM VV008 05/05 A2967 RMK AO1 PRESFR SLP066
SPECI CYNL 281816Z AUTO 16013G20KT 2 1/2SM VV008 05/05 A2967 RMK AO1 PRESFR SLP067
SPECI CYNL 281812Z AUTO 15015KT 3SM VV008 05/05 A2967 RMK AO1 PRESFR SLP067
SPECI CYNL 281810Z AUTO 15013G19KT 2SM VV007 05/05 A2968 RMK AO1 PRESFR SLP069
SPECI CYNL 281806Z AUTO 15013G19KT 1 3/4SM VV008 05/05 A2969 RMK AO1 PRESFR SLP072
METAR CYNL 281800Z AUTO 16013G19KT 2 1/2SM VV008 05/05 A2970 RMK AO1 PRESFR SLP074
SPECI CYNL 281735Z AUTO 16012G18KT 3SM VV008 05/04 A2973 RMK AO1 PRESFR SLP084
SPECI CYNL 281726Z AUTO 16013G18KT 2 1/2SM VV009 05/04 A2974 RMK AO1 PRESFR SLP088
SPECI CYNL 281723Z AUTO 16013G18KT 3SM VV009 05/04 A2974 RMK AO1 PRESFR SLP089
SPECI CYNL 281722Z AUTO 16011G18KT 2 1/2SM VV009 05/04 A2974 RMK AO1 PRESFR SLP090
SPECI CYNL 281719Z AUTO 17013G18KT 2 1/2SM FEW007 BKN010 OVC014 05/04 A2975 RMK AO1 PRESFR SLP092
SPECI CYNL 281718Z AUTO 16013KT 3SM FEW007 BKN010 OVC013 05/04 A2975 RMK AO1 PRESFR SLP092
SPECI CYNL 281717Z AUTO 16013G18KT 2 1/2SM VV009 05/04 A2975 RMK AO1 PRESFR SLP092
SPECI CYNL 281715Z AUTO 17012G18KT 3SM VV009 05/04 A2975 RMK AO1 PRESFR SLP094
METAR CYNL 281700Z AUTO 17012G17KT 3SM FEW009 BKN012 BKN016 05/04 A2977 RMK AO1 PRESFR SLP100
SPECI CYNL 281652Z AUTO 17011G17KT 5SM FEW009 BKN012 BKN020 05/04 A2978 RMK AO1 PRESFR SLP103
SPECI CYNL 281646Z AUTO 17013G18KT 3SM VV014 05/04 A2979 RMK AO1 PRESFR SLP104
SPECI CYNL 281644Z AUTO 17012G18KT 2 1/2SM VV015 05/04 A2979 RMK AO1 PRESFR SLP105
SPECI CYNL 281636Z AUTO 17013G21KT 3SM VV021 05/04 A2979 RMK AO1 PRESFR SLP107
SPECI CYNL 281633Z AUTO 16013G21KT 3SM FEW009 SCT013 BKN025 05/04 A2980 RMK AO1 PRESFR SLP108
SPECI CYNL 281630Z AUTO 17013G18KT 5SM FEW009 SCT012 BKN024 05/04 A2980 RMK AO1 PRESFR SLP109
SPECI CYNL 281624Z AUTO 17013G18KT 6SM SCT011 BKN024 05/04 A2980 RMK AO1 PRESFR SLP111
SPECI CYNL 281623Z AUTO 17012G18KT 9SM SCT011 BKN033 05/04 A2980 RMK AO1 PRESFR SLP111
SPECI CYNL 281620Z AUTO 16011G17KT 8SM FEW009 SCT012 BKN025 05/04 A2981 RMK AO1 PRESFR SLP112
SPECI CYNL 281613Z AUTO 16011G19KT 7SM SCT010 BKN025 05/04 A2981 RMK AO1 PRESFR SLP114
SPECI CYNL 281611Z AUTO 16011G19KT 6SM SCT010 BKN024 05/04 A2981 RMK AO1 PRESFR SLP115
SPECI CYNL 281609Z AUTO 17011G19KT 5SM SCT011 BKN025 05/04 A2982 RMK AO1 PRESFR SLP115
SPECI CYNL 281602Z AUTO 17012G17KT 5SM VV020 05/03 A2983 RMK AO1 PRESFR SLP118
METAR CYNL 281600Z AUTO 17010G17KT 4SM SCT010 BKN025 05/04 A2983 RMK AO1 PRESFR SLP119
SPECI CYNL 281556Z AUTO 17012G17KT 4SM VV022 05/03 A2983 RMK AO1 PRESFR SLP120
SPECI CYNL 281555Z AUTO 17013KT 4SM FEW010 SCT013 BKN027 05/03 A2983 RMK AO1 PRESFR SLP120
SPECI CYNL 281504Z AUTO 17011G16KT 9SM FEW008 SCT024 BKN039 04/03 A2987 RMK AO1 PRESFR SLP135
METAR CYNL 281500Z AUTO 17012KT 9SM FEW008 SCT011 BKN024 04/03 A2987 RMK AO1 PRESFR SLP136
SPECI CYNL 281448Z AUTO 17010G19KT 9SM SCT008 BKN024 04/03 A2989 RMK AO1 PRESFR SLP142
SPECI CYNL 281446Z AUTO 17014G19KT 9SM SCT008 BKN010 04/03 A2989 RMK AO1 PRESFR SLP142
METAR CYNL 281400Z AUTO 17010KT 9SM OVC007 04/03 A2992 RMK AO1 PRESFR SLP151
METAR CYNL 281300Z AUTO 17012KT 9SM OVC006 04/03 A2995 RMK AO1 PRESFR SLP162
SPECI CYNL 281227Z AUTO 16008KT 9SM BKN007 BKN011 04/03 A2998 RMK AO1 PRESFR SLP170
SPECI CYNL 281225Z AUTO 16008KT 9SM SCT007 BKN011 04/03 A2998 RMK AO1 PRESFR SLP171
SPECI CYNL 281209Z AUTO 17009KT 9SM BKN007 BKN018 04/02 A2999 RMK AO1 PRESFR SLP176
SPECI CYNL 281204Z AUTO 17009KT 9SM SCT007 BKN014 BKN018 04/02 A3000 RMK AO1 PRESFR SLP177
SPECI CYNL 281202Z AUTO 17009KT 9SM SCT007 BKN015 04/02 A3000 RMK AO1 PRESFR SLP177
METAR CYNL 281200Z AUTO 17009KT 9SM SCT007 BKN014 BKN018 04/02 A3000 RMK AO1 PRESFR SLP178
SPECI CYNL 281149Z AUTO 16008KT 9SM FEW008 BKN014 BKN018 04/02 A3000 RMK AO1 PRESFR SLP177
SPECI CYNL 281146Z AUTO 17009KT 9SM BKN014 04/02 A3000 RMK AO1 PRESFR SLP178
SPECI CYNL 281145Z AUTO 16009KT 9SM SCT013 BKN016 04/02 A3000 RMK AO1 PRESFR SLP179
SPECI CYNL 281133Z AUTO 17008KT 9SM OVC014 04/02 A3002 RMK AO1 PRESFR SLP183
METAR CYNL 281100Z AUTO 17009KT 9SM OVC016 04/01 A3004 RMK AO1 PRESFR SLP190
SPECI CYNL 281027Z AUTO 16009KT 9SM OVC015 04/01 A3004 RMK AO1 SLP191
METAR CYNL 281000Z AUTO 17007KT 9SM BKN014 OVC017 04/01 A3006 RMK AO1 SLP197
SPECI CYNL 280958Z AUTO 17006KT 9SM BKN014 OVC017 04/01 A3006 RMK AO1 SLP198
METAR CYNL 280900Z AUTO 17005KT 9SM OVC017 04/02 A3008 RMK AO1 PRESFR SLP203
SPECI CYNL 280827Z AUTO 13005KT 9SM OVC015 03/01 A3007 RMK AO1 SLP203
METAR CYNL 280800Z AUTO 15004KT 9SM OVC014 03/01 A3010 RMK AO1 SLP211
SPECI CYNL 280755Z AUTO 15004KT 9SM OVC014 03/01 A3010 RMK AO1 SLP211
METAR CYNL 280700Z AUTO 13003KT 9SM OVC017 03/00 A3011 RMK AO1 SLP214
METAR CYNL 280600Z AUTO 00000KT 9SM BKN019 OVC023 04/01 A3012 RMK AO1 SLP220
METAR CYNL 280500Z AUTO 00000KT 9SM OVC019 04/01 A3012 RMK AO1 SLP219
METAR CYNL 280400Z AUTO 00000KT 9SM OVC019 03/01 A3012 RMK AO1 SLP218
METAR CYNL 280300Z AUTO 08002KT 9SM BKN021 03/01 A3012 RMK AO1 SLP222
SPECI CYNL 280259Z AUTO 07003KT 9SM BKN021 03/01 A3012 RMK AO1 SLP222
SPECI CYNL 280237Z AUTO 06004KT 9SM SCT020 04/00 A3012 RMK AO1 SLP221
METAR CYNL 280200Z AUTO 03004KT 9SM OVC021 04/00 A3011 RMK AO1 SLP216
METAR CYNL 280100Z AUTO 33003KT 9SM BKN022 OVC050 05/02 A3011 RMK AO1 PRESRR SLP216
SPECI CYNL 280037Z AUTO 32003KT 9SM BKN022 BKN049 05/03 A3010 RMK AO1 PRESRR SLP213
SPECI CYNL 280028Z AUTO 33003KT 9SM SCT022 BKN049 05/02 A3009 RMK AO1 PRESRR SLP211
SPECI CYNL 280015Z AUTO 33004KT 9SM BKN021 05/02 A3009 RMK AO1 PRESRR SLP211
METAR CYNL 280000Z AUTO 33004KT 9SM FEW023 BKN043 05/02 A3009 RMK AO1 PRESRR SLP209
SPECI CYNL 272306Z AUTO 33005KT 9SM FEW014 SCT018 OVC043 05/02 A3007 RMK AO1 SLP201
METAR CYNL 272300Z AUTO 35005KT 9SM FEW014 SCT018 BKN023 05/02 A3006 RMK AO1 SLP199
SPECI CYNL 272251Z AUTO 35006KT 9SM SCT014 OVC018 05/02 A3006 RMK AO1 PRESRR SLP198
METAR CYNL 272200Z AUTO 35005KT 9SM OVC013 05/02 A3005 RMK AO1 PRESRR SLP194
METAR CYNL 272100Z AUTO 34008KT 9SM BKN014 BKN018 05/02 A3003 RMK AO1 PRESRR SLP187
SPECI CYNL 272046Z AUTO 00004KT 9SM BKN014 06/02 A3002 RMK AO1 PRESRR SLP184
SPECI CYNL 272042Z AUTO 01007KT 9SM BKN015 06/02 A3002 RMK AO1 PRESRR SLP183
SPECI CYNL 272030Z AUTO 35008KT 9SM OVC014 05/02 A3001 RMK AO1 PRESRR SLP182
SPECI CYNL 272027Z AUTO 00008KT 9SM OVC015 05/02 A3001 RMK AO1 PRESRR SLP181
SPECI CYNL 272012Z AUTO 00007KT 9SM BKN014 OVC017 06/02 A3000 RMK AO1 PRESRR SLP178
SPECI CYNL 272011Z AUTO 00007KT 9SM OVC015 06/02 A3000 RMK AO1 PRESRR SLP178
SPECI CYNL 272010Z AUTO 00007KT 9SM BKN014 OVC017 06/02 A3000 RMK AO1 PRESRR SLP178
SPECI CYNL 272008Z AUTO 35006KT 9SM OVC015 06/02 A3000 RMK AO1 PRESRR SLP178
METAR CYNL 272000Z AUTO 00006KT 9SM BKN014 BKN018 05/02 A3000 RMK AO1 PRESRR SLP178
SPECI CYNL 271927Z AUTO 35007KT 9SM FEW009 BKN013 OVC022 05/02 A2998 RMK AO1 PRESRR SLP171
SPECI CYNL 271919Z AUTO 00006KT 9SM SCT010 BKN013 BKN022 05/02 A2998 RMK AO1 PRESRR SLP169
SPECI CYNL 271912Z AUTO 00006KT 9SM SCT010 BKN015 BKN023 05/02 A2997 RMK AO1 PRESRR SLP169
METAR CYNL 271900Z AUTO 35009KT 7SM BKN011 BKN016 05/03 A2997 RMK AO1 PRESRR SLP167
SPECI CYNL 271828Z AUTO 00007KT 9SM SCT009 BKN012 BKN028 05/03 A2995 RMK AO1 PRESRR SLP162
SPECI CYNL 271820Z AUTO 01010KT 6SM BKN011 05/03 A2995 RMK AO1 PRESRR SLP160
SPECI CYNL 271817Z AUTO 01008KT 9SM SCT012 BKN024 05/03 A2994 RMK AO1 PRESRR SLP159
SPECI CYNL 271810Z AUTO 35006KT 9SM SCT012 BKN030 05/03 A2994 RMK AO1 PRESRR SLP157
SPECI CYNL 271805Z AUTO 01007KT 9SM SCT012 BKN016 05/03 A2994 RMK AO1 PRESRR SLP156
SPECI CYNL 271804Z AUTO 00008KT 9SM BKN012 05/02 A2993 RMK AO1 PRESRR SLP156
SPECI CYNL 271802Z AUTO 00007KT 9SM FEW007 SCT012 BKN016 05/03 A2993 RMK AO1 PRESRR SLP155
METAR CYNL 271800Z AUTO 00010KT 9SM FEW007 BKN012 05/03 A2993 RMK AO1 PRESRR SLP155
SPECI CYNL 271740Z AUTO 00008KT 9SM FEW007 SCT009 BKN012 04/03 A2992 RMK AO1 PRESRR SLP152
SPECI CYNL 271735Z AUTO 00007KT 3SM FEW007 BKN009 BKN012 04/03 A2992 RMK AO1 PRESRR SLP151
SPECI CYNL 271734Z AUTO 01007KT 2SM FEW007 BKN009 BKN012 04/03 A2992 RMK AO1 PRESRR SLP151
SPECI CYNL 271733Z AUTO 01007KT 1 1/2SM FEW007 BKN009 BKN012 04/03 A2992 RMK AO1 PRESRR SLP151
SPECI CYNL 271730Z AUTO 01007KT 1 3/4SM SCT009 BKN012 04/03 A2992 RMK AO1 PRESRR SLP150
SPECI CYNL 271729Z AUTO 01006KT 2SM FEW008 BKN012 BKN021 04/03 A2991 RMK AO1 PRESRR SLP149
SPECI CYNL 271727Z AUTO 01008KT 1 3/4SM FEW008 BKN013 04/03 A2991 RMK AO1 PRESRR SLP149
SPECI CYNL 271726Z AUTO 01009KT 2 1/2SM FEW008 BKN012 BKN021 04/03 A2991 RMK AO1 PRESRR SLP149
SPECI CYNL 271719Z AUTO 00008KT 4SM SCT009 BKN010 OVC013 04/03 A2991 RMK AO1 PRESRR SLP148
SPECI CYNL 271717Z AUTO 01008KT 7SM BKN009 BKN014 04/03 A2991 RMK AO1 PRESRR SLP148
SPECI CYNL 271708Z AUTO 00007KT 9SM SCT010 BKN014 BKN018 04/03 A2990 RMK AO1 PRESRR SLP146
SPECI CYNL 271707Z AUTO 01008KT 9SM SCT011 BKN015 BKN018 04/03 A2990 RMK AO1 PRESRR SLP146
SPECI CYNL 271705Z AUTO 00007KT 9SM SCT010 BKN014 BKN018 04/03 A2990 RMK AO1 PRESRR SLP146
SPECI CYNL 271703Z AUTO 00006KT 9SM SCT010 BKN015 04/03 A2990 RMK AO1 PRESRR SLP146
SPECI CYNL 271702Z AUTO 00007KT 5SM SCT010 BKN012 BKN015 04/03 A2990 RMK AO1 PRESRR SLP146
METAR CYNL 271700Z AUTO 00006KT 2SM BKN010 BKN014 04/03 A2990 RMK AO1 PRESRR SLP145
SPECI CYNL 271658Z AUTO 00008KT 2 1/2SM BKN010 BKN054 04/03 A2990 RMK AO1 PRESRR SLP145
SPECI CYNL 271642Z AUTO 00008KT 9SM SCT009 BKN011 BKN014 04/03 A2990 RMK AO1 PRESRR SLP144
SPECI CYNL 271639Z AUTO 00008KT 9SM BKN009 BKN014 04/03 A2990 RMK AO1 PRESRR SLP143
SPECI CYNL 271638Z AUTO 35009KT 9SM SCT009 BKN011 BKN014 04/03 A2990 RMK AO1 PRESRR SLP143
SPECI CYNL 271637Z AUTO 34008KT 7SM BKN009 BKN013 04/03 A2989 RMK AO1 PRESRR SLP143
SPECI CYNL 271636Z AUTO 35007KT 3SM SCT009 BKN011 BKN024 04/03 A2989 RMK AO1 PRESRR SLP143
SPECI CYNL 271635Z AUTO 35007KT 2SM SCT009 BKN011 04/03 A2989 RMK AO1 PRESRR SLP142
SPECI CYNL 271634Z AUTO 00009KT 1 3/4SM SCT009 BKN011 04/03 A2989 RMK AO1 PRESRR SLP142
SPECI CYNL 271627Z AUTO 35007KT 9SM SCT008 BKN011 04/03 A2989 RMK AO1 PRESRR SLP141
SPECI CYNL 271626Z AUTO 35007KT 9SM SCT008 BKN019 04/03 A2989 RMK AO1 PRESRR SLP141
SPECI CYNL 271624Z AUTO 00008KT 9SM SCT008 BKN012 04/03 A2989 RMK AO1 PRESRR SLP140
SPECI CYNL 271623Z AUTO 00009KT 9SM SCT008 BKN018 04/03 A2989 RMK AO1 PRESRR SLP140
SPECI CYNL 271615Z AUTO 00008KT 9SM FEW007 SCT010 BKN012 04/03 A2988 RMK AO1 PRESRR SLP139
SPECI CYNL 271612Z AUTO 00007KT 9SM FEW007 SCT010 BKN018 04/03 A2988 RMK AO1 PRESRR SLP139
SPECI CYNL 271606Z AUTO 00009KT 9SM FEW007 SCT010 04/03 A2988 RMK AO1 PRESRR SLP138
METAR CYNL 271600Z AUTO 35007KT 5SM FEW006 SCT010 BKN018 04/03 A2987 RMK AO1 PRESRR SLP136
SPECI CYNL 271559Z AUTO 00007KT 3SM FEW006 SCT010 BKN018 04/03 A2987 RMK AO1 PRESRR SLP136
SPECI CYNL 271557Z AUTO 00009KT 2 1/2SM FEW006 SCT010 BKN012 04/03 A2987 RMK AO1 PRESRR SLP136
SPECI CYNL 271547Z AUTO 01007KT 9SM FEW006 SCT009 BKN012 04/03 A2987 RMK AO1 PRESRR SLP135
SPECI CYNL 271537Z AUTO 00007KT 3SM SCT007 BKN009 BKN012 04/03 A2987 RMK AO1 PRESRR SLP134
SPECI CYNL 271534Z AUTO 00010KT 2 1/2SM BKN008 BKN011 04/03 A2987 RMK AO1 PRESRR SLP134
SPECI CYNL 271521Z AUTO 01007KT 9SM FEW005 SCT007 BKN009 04/03 A2986 RMK AO1 PRESRR SLP132
SPECI CYNL 271520Z AUTO 01006KT 9SM FEW005 SCT007 BKN010 04/03 A2986 RMK AO1 PRESRR SLP131
SPECI CYNL 271503Z AUTO 00007KT 3SM BKN006 BKN009 OVC012 03/03 A2985 RMK AO1 PRESRR SLP129
METAR CYNL 271500Z AUTO 01008KT 1 3/4SM BKN006 OVC009 03/03 A2985 RMK AO1 PRESRR SLP128
SPECI CYNL 271453Z AUTO 00008KT 3SM VV007 03/03 A2985 RMK AO1 PRESRR SLP127
SPECI CYNL 271449Z AUTO 35006KT 2 1/2SM VV008 03/03 A2985 RMK AO1 PRESRR SLP127
SPECI CYNL 271448Z AUTO 35007KT 1 1/2SM VV008 03/03 A2985 RMK AO1 PRESRR SLP126
SPECI CYNL 271446Z AUTO 00007KT 1SM VV008 03/03 A2984 RMK AO1 PRESRR SLP126
SPECI CYNL 271441Z AUTO 01007KT 1 3/4SM BKN006 OVC010 03/03 A2984 RMK AO1 PRESRR SLP125
SPECI CYNL 271439Z AUTO 01007KT 2 1/2SM BKN006 OVC010 03/03 A2984 RMK AO1 PRESRR SLP124
METAR CYNL 271400Z AUTO 00008KT 9SM BKN006 BKN009 OVC011 03/03 A2982 RMK AO1 PRESRR SLP118
SPECI CYNL 271342Z AUTO 00009KT 3SM VV007 03/03 A2981 RMK AO1 PRESRR SLP116
SPECI CYNL 271340Z AUTO 00008KT 2SM VV006 03/03 A2981 RMK AO1 PRESRR SLP116
SPECI CYNL 271336Z AUTO 35005KT 1 1/2SM VV007 03/03 A2981 RMK AO1 PRESRR SLP115
SPECI CYNL 271333Z AUTO 35007KT 1SM VV008 03/03 A2981 RMK AO1 PRESRR SLP115
SPECI CYNL 271331Z AUTO 35007KT 2 1/2SM BKN006 OVC010 03/03 A2981 RMK AO1 PRESRR SLP114
SPECI CYNL 271315Z AUTO 00007KT 3SM BKN006 BKN008 OVC010 03/03 A2981 RMK AO1 PRESRR SLP113
SPECI CYNL 271312Z AUTO 35007KT 2 1/2SM BKN006 BKN008 OVC011 03/03 A2980 RMK AO1 PRESRR SLP112
METAR CYNL 271300Z AUTO 01007KT 9SM BKN006 OVC010 03/03 A2980 RMK AO1 PRESRR SLP110
SPECI CYNL 271222Z AUTO 01008KT 3SM BKN007 03/03 A2978 RMK AO1 PRESRR SLP103
SPECI CYNL 271221Z AUTO 01008KT 1 1/2SM VV006 03/03 A2978 RMK AO1 PRESRR SLP103
SPECI CYNL 271219Z AUTO 01005KT 1 1/4SM VV007 03/03 A2978 RMK AO1 PRESRR SLP103
SPECI CYNL 271218Z AUTO 01006KT 1 1/2SM VV007 03/03 A2978 RMK AO1 PRESRR SLP103
SPECI CYNL 271215Z AUTO 01008KT 1 1/4SM BKN007 BKN010 OVC016 03/03 A2977 RMK AO1 PRESRR SLP102
SPECI CYNL 271214Z AUTO 00007KT 1 3/4SM BKN007 BKN010 OVC016 03/03 A2977 RMK AO1 PRESRR SLP102
SPECI CYNL 271213Z AUTO 00006KT 2 1/2SM BKN006 BKN010 OVC016 03/03 A2977 RMK AO1 PRESRR SLP102
METAR CYNL 271200Z AUTO 01008KT 9SM VV008 03/03 A2977 RMK AO1 PRESRR SLP100
SPECI CYNL 271140Z AUTO 00005KT 3SM VV007 03/03 A2976 RMK AO1 PRESRR SLP097
SPECI CYNL 271139Z AUTO 00006KT 1 1/2SM VV007 03/03 A2976 RMK AO1 PRESRR SLP097
SPECI CYNL 271138Z AUTO 00006KT 1 1/4SM VV007 03/03 A2976 RMK AO1 PRESRR SLP097
SPECI CYNL 271135Z AUTO 00005KT 1 3/4SM SCT005 BKN007 OVC010 03/03 A2976 RMK AO1 PRESRR SLP096
SPECI CYNL 271134Z AUTO 00005KT 2SM BKN006 OVC010 03/03 A2976 RMK AO1 PRESRR SLP096
SPECI CYNL 271102Z AUTO 00006KT 5SM VV007 03/03 A2974 RMK AO1 PRESRR SLP091
SPECI CYNL 271101Z AUTO 35006KT 2 1/2SM VV007 03/03 A2974 RMK AO1 PRESRR SLP091
METAR CYNL 271100Z AUTO 35007KT 1 1/4SM VV007 03/03 A2974 RMK AO1 PRESRR SLP091
SPECI CYNL 271058Z AUTO 00007KT 3/4SM VV007 03/03 A2974 RMK AO1 PRESRR SLP090
SPECI CYNL 271053Z AUTO 00006KT 1 1/2SM SCT006 BKN007 BKN010 03/03 A2974 RMK AO1 SLP090
SPECI CYNL 271051Z AUTO 00007KT 2 1/2SM BKN006 BKN009 OVC035 03/03 A2974 RMK AO1 SLP090
SPECI CYNL 271015Z AUTO 00008KT 4SM VV008 03/03 A2972 RMK AO1 SLP083
SPECI CYNL 271014Z AUTO 00008KT 2 1/2SM VV007 03/03 A2972 RMK AO1 SLP082
SPECI CYNL 271013Z AUTO 00007KT 1 1/4SM VV007 03/03 A2972 RMK AO1 SLP082
SPECI CYNL 271012Z AUTO 00007KT 3/4SM VV007 03/03 A2972 RMK AO1 SLP082
SPECI CYNL 271009Z AUTO 00008KT 5/8SM VV007 03/03 A2972 RMK AO1 SLP082
SPECI CYNL 271008Z AUTO 00007KT 1SM VV007 03/03 A2972 RMK AO1 SLP082
SPECI CYNL 271004Z AUTO 00008KT 1 1/2SM VV008 03/03 A2972 RMK AO1 SLP081
SPECI CYNL 271001Z AUTO 00007KT 1 1/4SM VV008 03/03 A2972 RMK AO1 SLP081
METAR CYNL 271000Z AUTO 35008KT 2 1/2SM VV008 03/03 A2972 RMK AO1 SLP081
SPECI CYNL 270956Z AUTO 34008KT 3SM VV008 03/03 A2972 RMK AO1 PRESRR SLP080
SPECI CYNL 270952Z AUTO 34008KT 2SM VV007 03/03 A2971 RMK AO1 PRESRR SLP080
SPECI CYNL 270949Z AUTO 34008KT 1 3/4SM VV008 03/03 A2971 RMK AO1 PRESRR SLP079
SPECI CYNL 270945Z AUTO 35006KT 2SM VV007 03/03 A2971 RMK AO1 PRESRR SLP079
SPECI CYNL 270944Z AUTO 35007KT 1 1/2SM VV007 03/03 A2971 RMK AO1 PRESRR SLP078
SPECI CYNL 270940Z AUTO 34008KT 1SM VV007 03/03 A2971 RMK AO1 PRESRR SLP078
SPECI CYNL 270939Z AUTO 34007KT 3/4SM VV008 03/03 A2971 RMK AO1 PRESRR SLP078
SPECI CYNL 270936Z AUTO 34008KT 1 1/4SM VV008 03/03 A2971 RMK AO1 PRESRR SLP077
SPECI CYNL 270934Z AUTO 34006KT 1 3/4SM VV008 03/03 A2971 RMK AO1 PRESRR SLP077
SPECI CYNL 270933Z AUTO 35007KT 1 1/4SM VV008 03/03 A2970 RMK AO1 PRESRR SLP077
SPECI CYNL 270932Z AUTO 35008KT 3/4SM VV008 03/03 A2970 RMK AO1 PRESRR SLP077
SPECI CYNL 270929Z AUTO 00007KT 5/8SM VV008 03/03 A2970 RMK AO1 PRESRR SLP077
SPECI CYNL 270927Z AUTO 00006KT 3/4SM VV009 03/03 A2970 RMK AO1 PRESRR SLP076
SPECI CYNL 270925Z AUTO 00006KT 1 1/4SM VV008 03/03 A2970 RMK AO1 PRESRR SLP076
SPECI CYNL 270924Z AUTO 00006KT 1 3/4SM VV008 03/03 A2970 RMK AO1 PRESRR SLP076
SPECI CYNL 270923Z AUTO 00007KT 2SM VV008 03/03 A2970 RMK AO1 PRESRR SLP076
SPECI CYNL 270922Z AUTO 00007KT 1 1/2SM VV008 03/03 A2970 RMK AO1 PRESRR SLP076
SPECI CYNL 270920Z AUTO 35006KT 1SM VV007 03/03 A2970 RMK AO1 PRESRR SLP076
SPECI CYNL 270918Z AUTO 35007KT 3/4SM VV007 03/03 A2970 RMK AO1 PRESRR SLP076
SPECI CYNL 270915Z AUTO 35006KT 1 1/4SM VV007 03/03 A2970 RMK AO1 PRESRR SLP076
SPECI CYNL 270911Z AUTO 35005KT 1 1/2SM VV008 03/03 A2970 RMK AO1 PRESRR SLP075
SPECI CYNL 270910Z AUTO 35006KT 1 1/4SM VV008 03/03 A2970 RMK AO1 PRESRR SLP075
SPECI CYNL 270909Z AUTO 35007KT 1 1/2SM VV008 03/03 A2970 RMK AO1 PRESRR SLP075
SPECI CYNL 270908Z AUTO 35008KT 2SM VV008 03/03 A2970 RMK AO1 PRESRR SLP075
SPECI CYNL 270905Z AUTO 34005KT 3SM VV008 03/03 A2970 RMK AO1 PRESRR SLP074
SPECI CYNL 270904Z AUTO 34006KT 2SM VV008 03/03 A2970 RMK AO1 PRESRR SLP074
METAR CYNL 270900Z AUTO 35006KT 1 3/4SM VV008 03/03 A2970 RMK AO1 PRESRR SLP074
SPECI CYNL 270859Z AUTO 35007KT 1 3/4SM VV008 03/03 A2970 RMK AO1 PRESRR SLP074
SPECI CYNL 270857Z AUTO 34008KT 2 1/2SM VV008 03/03 A2970 RMK AO1 PRESRR SLP073
SPECI CYNL 270855Z AUTO 33006KT 4SM VV008 03/03 A2969 RMK AO1 PRESRR SLP073
SPECI CYNL 270853Z AUTO 34005KT 2SM VV008 03/03 A2969 RMK AO1 PRESRR SLP073
SPECI CYNL 270852Z AUTO 35006KT 1 3/4SM VV008 03/03 A2969 RMK AO1 PRESRR SLP072
SPECI CYNL 270851Z AUTO 35007KT 2SM VV008 03/03 A2969 RMK AO1 PRESRR SLP072
SPECI CYNL 270847Z AUTO 35009KT 4SM VV008 03/03 A2969 RMK AO1 PRESRR SLP072
SPECI CYNL 270842Z AUTO 35009KT 2SM VV008 03/03 A2969 RMK AO1 PRESRR SLP071
SPECI CYNL 270837Z AUTO 34009G15KT 3SM VV008 03/03 A2968 RMK AO1 PRESRR SLP070
SPECI CYNL 270835Z AUTO 34009G15KT 2 1/2SM VV008 03/03 A2968 RMK AO1 PRESRR SLP069
SPECI CYNL 270826Z AUTO 34008KT 3SM VV008 03/03 A2968 RMK AO1 PRESRR SLP069
SPECI CYNL 270822Z AUTO 34006KT 2SM VV008 03/03 A2968 RMK AO1 PRESRR SLP068
SPECI CYNL 270820Z AUTO 34007KT 1 3/4SM VV007 03/03 A2968 RMK AO1 PRESRR SLP068
SPECI CYNL 270818Z AUTO 35008KT 2SM VV007 03/03 A2968 RMK AO1 PRESRR SLP068
SPECI CYNL 270815Z AUTO 34007KT 1 3/4SM VV008 03/03 A2968 RMK AO1 PRESRR SLP067
SPECI CYNL 270814Z AUTO 34006KT 2SM VV008 03/03 A2968 RMK AO1 PRESRR SLP067
SPECI CYNL 270811Z AUTO 35007KT 1 3/4SM VV008 03/03 A2968 RMK AO1 PRESRR SLP067
SPECI CYNL 270810Z AUTO 35007KT 2SM VV008 03/03 A2968 RMK AO1 PRESRR SLP067
SPECI CYNL 270808Z AUTO 34008KT 1 1/2SM VV008 03/03 A2968 RMK AO1 PRESRR SLP066
SPECI CYNL 270805Z AUTO 34006KT 1 1/4SM VV008 03/03 A2967 RMK AO1 PRESRR SLP066
SPECI CYNL 270804Z AUTO 34007KT 1 1/4SM SCT006 OVC010 03/03 A2967 RMK AO1 PRESRR SLP066
SPECI CYNL 270803Z AUTO 35006KT 1 1/2SM SCT006 OVC010 03/03 A2967 RMK AO1 PRESRR SLP066
SPECI CYNL 270801Z AUTO 34007KT 2SM SCT006 OVC010 03/03 A2967 RMK AO1 PRESRR SLP065
METAR CYNL 270800Z AUTO 34008KT 2 1/2SM VV009 03/03 A2967 RMK AO1 PRESRR SLP065
SPECI CYNL 270745Z AUTO 34008KT 9SM SCT006 BKN008 OVC010 03/03 A2967 RMK AO1 SLP064
SPECI CYNL 270744Z AUTO 35008KT 9SM SCT006 OVC010 03/03 A2967 RMK AO1 SLP064
SPECI CYNL 270741Z AUTO 34007KT 9SM VV010 03/03 A2967 RMK AO1 SLP063
METAR CYNL 270700Z AUTO 35007KT 4SM BKN006 OVC009 03/03 A2965 RMK AO1 SLP056
METAR CYNL 270600Z AUTO 35006KT 9SM BKN006 OVC009 03/03 A2963 RMK AO1 SLP052
SPECI CYNL 270542Z AUTO 35005KT 9SM BKN007 BKN011 OVC056 03/03 A2963 RMK AO1 SLP051
SPECI CYNL 270538Z AUTO 35009KT 9SM SCT007 BKN010 OVC056 03/03 A2963 RMK AO1 SLP051
SPECI CYNL 270537Z AUTO 35009KT 9SM VV010 03/03 A2963 RMK AO1 SLP051
SPECI CYNL 270525Z AUTO 34006KT 9SM BKN007 BKN010 OVC056 03/03 A2963 RMK AO1 SLP050
SPECI CYNL 270515Z AUTO 35008KT 9SM SCT007 BKN010 BKN013 03/03 A2963 RMK AO1 SLP050
METAR CYNL 270500Z AUTO 35007KT 9SM SCT006 BKN009 OVC012 03/03 A2962 RMK AO1 SLP049
SPECI CYNL 270447Z AUTO 35008KT 3SM SCT006 BKN008 BKN011 03/03 A2962 RMK AO1 SLP048
SPECI CYNL 270441Z AUTO 35006KT 2SM BKN007 BKN011 OVC058 04/03 A2962 RMK AO1 SLP047
SPECI CYNL 270440Z AUTO 35006KT 1 3/4SM BKN007 BKN011 OVC058 04/03 A2962 RMK AO1 SLP047
SPECI CYNL 270439Z AUTO 00006KT 2 1/2SM BKN007 BKN011 OVC058 04/03 A2962 RMK AO1 SLP047
SPECI CYNL 270433Z AUTO 00006KT 9SM FEW007 BKN008 BKN011 04/03 A2962 RMK AO1 SLP047
SPECI CYNL 270426Z AUTO 35006KT 9SM SCT007 OVC011 04/03 A2962 RMK AO1 SLP047
SPECI CYNL 270425Z AUTO 35006KT 9SM VV011 04/03 A2962 RMK AO1 SLP047
SPECI CYNL 270424Z AUTO 00008KT 9SM SCT007 BKN008 OVC011 04/03 A2962 RMK AO1 SLP047
SPECI CYNL 270423Z AUTO 00007KT 9SM SCT007 OVC010 04/03 A2962 RMK AO1 SLP047
SPECI CYNL 270412Z AUTO 35008KT 9SM BKN007 BKN010 OVC013 04/03 A2961 RMK AO1 SLP046
SPECI CYNL 270403Z AUTO 34007KT 9SM SCT007 OVC010 04/03 A2961 RMK AO1 SLP045
METAR CYNL 270400Z AUTO 35007KT 7SM BKN007 BKN010 OVC012 04/03 A2961 RMK AO1 SLP045
SPECI CYNL 270359Z AUTO 35007KT 5SM BKN007 BKN010 OVC012 04/03 A2961 RMK AO1 SLP045
SPECI CYNL 270347Z AUTO 35006KT 4SM SCT007 BKN010 OVC012 04/03 A2961 RMK AO1 SLP044
SPECI CYNL 270343Z AUTO 34007KT 2 1/2SM FEW006 SCT008 BKN010 04/03 A2961 RMK AO1 SLP044
SPECI CYNL 270341Z AUTO 35007KT 6SM SCT007 BKN010 OVC013 04/03 A2961 RMK AO1 SLP044
SPECI CYNL 270340Z AUTO 35008KT 9SM VV010 04/03 A2961 RMK AO1 SLP044
SPECI CYNL 270339Z AUTO 00007KT 6SM VV009 04/04 A2961 RMK AO1 SLP044
SPECI CYNL 270338Z AUTO 35006KT 3SM VV010 04/04 A2960 RMK AO1 SLP044
SPECI CYNL 270337Z AUTO 34006KT 2SM VV009 04/04 A2960 RMK AO1 SLP044
SPECI CYNL 270333Z AUTO 00006KT 1SM VV009 04/03 A2960 RMK AO1 SLP044
SPECI CYNL 270332Z AUTO 00007KT 3/4SM VV010 04/03 A2960 RMK AO1 SLP043
SPECI CYNL 270330Z AUTO 00008KT 1 1/4SM VV010 04/03 A2960 RMK AO1 SLP043
SPECI CYNL 270328Z AUTO 00010KT 1 1/2SM VV010 04/03 A2960 RMK AO1 SLP043
SPECI CYNL 270327Z AUTO 00008KT 2SM VV011 04/03 A2960 RMK AO1 SLP043
SPECI CYNL 270326Z AUTO 00007KT 4SM SCT007 OVC011 04/03 A2960 RMK AO1 SLP043
SPECI CYNL 270321Z AUTO 00009KT 9SM VV011 04/03 A2960 RMK AO1 SLP043
METAR CYNL 270300Z AUTO 35007KT 9SM BKN009 BKN012 04/03 A2960 RMK AO1 SLP040
SPECI CYNL 270251Z AUTO 34007KT 9SM BKN009 04/03 A2960 RMK AO1 PRESRR SLP041
SPECI CYNL 270250Z AUTO 34007KT 9SM FEW008 BKN010 04/03 A2960 RMK AO1 PRESRR SLP041
SPECI CYNL 270249Z AUTO 34007KT 9SM BKN009 04/03 A2960 RMK AO1 PRESRR SLP041
SPECI CYNL 270247Z AUTO 35006KT 9SM SCT008 BKN011 04/03 A2959 RMK AO1 PRESRR SLP041
SPECI CYNL 270246Z AUTO 34005KT 9SM BKN009 BKN016 04/03 A2960 RMK AO1 PRESRR SLP041
SPECI CYNL 270245Z AUTO 34005KT 9SM SCT009 BKN011 04/03 A2960 RMK AO1 PRESRR SLP041
SPECI CYNL 270223Z AUTO 35007KT 8SM BKN008 BKN012 OVC016 04/03 A2959 RMK AO1 PRESRR SLP038
SPECI CYNL 270222Z AUTO 00007KT 9SM SCT008 BKN010 BKN012 04/03 A2959 RMK AO1 PRESRR SLP038
SPECI CYNL 270218Z AUTO 35008KT 9SM BKN008 BKN011 04/03 A2959 RMK AO1 PRESRR SLP038
SPECI CYNL 270217Z AUTO 34008KT 9SM SCT008 BKN011 04/03 A2959 RMK AO1 PRESRR SLP038
SPECI CYNL 270215Z AUTO 35008KT 9SM BKN008 BKN011 04/03 A2959 RMK AO1 PRESRR SLP038
SPECI CYNL 270213Z AUTO 34005KT 6SM SCT008 BKN011 04/03 A2959 RMK AO1 PRESRR SLP037
SPECI CYNL 270212Z AUTO 34005KT 6SM BKN008 BKN011 04/03 A2959 RMK AO1 PRESRR SLP037
METAR CYNL 270200Z AUTO 33006KT 9SM FEW008 BKN010 04/03 A2958 RMK AO1 PRESRR SLP036
SPECI CYNL 270156Z AUTO 34006KT 9SM FEW008 BKN011 04/03 A2958 RMK AO1 PRESRR SLP035
SPECI CYNL 270154Z AUTO 34007KT 9SM FEW008 SCT011 BKN048 04/03 A2958 RMK AO1 PRESRR SLP035
SPECI CYNL 270151Z AUTO 34006KT 9SM SCT008 BKN011 04/03 A2958 RMK AO1 PRESRR SLP035
SPECI CYNL 270144Z AUTO 34006KT 9SM SCT007 BKN048 04/03 A2957 RMK AO1 PRESRR SLP033
SPECI CYNL 270143Z AUTO 35007KT 9SM SCT007 BKN027 BKN048 04/03 A2957 RMK AO1 PRESRR SLP033
SPECI CYNL 270142Z AUTO 35007KT 9SM SCT008 BKN010 BKN048 04/03 A2957 RMK AO1 PRESRR SLP033
SPECI CYNL 270133Z AUTO 34008KT 9SM FEW006 BKN008 04/03 A2957 RMK AO1 PRESRR SLP033
SPECI CYNL 270132Z AUTO 34006KT 9SM FEW006 SCT009 BKN011 04/03 A2957 RMK AO1 PRESRR SLP033
SPECI CYNL 270131Z AUTO 34006KT 9SM FEW006 BKN009 04/03 A2957 RMK AO1 PRESRR SLP033
SPECI CYNL 270127Z AUTO 34008KT 3SM SCT008 BKN014 04/04 A2957 RMK AO1 PRESRR SLP032
SPECI CYNL 270126Z AUTO 35007KT 2SM SCT008 BKN058 04/04 A2957 RMK AO1 PRESRR SLP032
SPECI CYNL 270116Z AUTO 34007KT 9SM FEW009 SCT013 BKN120 04/03 A2957 RMK AO1 PRESRR SLP031
SPECI CYNL 270115Z AUTO 34007KT 4SM FEW010 SCT013 BKN120 04/03 A2957 RMK AO1 PRESRR SLP030
SPECI CYNL 270114Z AUTO 34006KT 5SM FEW010 SCT013 BKN023 04/03 A2957 RMK AO1 PRESRR SLP030
METAR CYNL 270100Z AUTO 34006KT 9SM FEW010 SCT047 BKN120 04/03 A2956 RMK AO1 PRESRR SLP028
SPECI CYNL 270007Z AUTO 00007KT 6SM FEW008 SCT011 BKN042 04/04 A2955 RMK AO1 PRESRR SLP023
SPECI CYNL 270005Z AUTO 35009KT 2 1/2SM FEW008 SCT011 BKN042 04/04 A2954 RMK AO1 PRESRR SLP022
SPECI CYNL 270002Z AUTO 35007KT 9SM FEW009 SCT011 BKN042 04/03 A2954 RMK AO1 PRESRR SLP021
METAR CYNL 270000Z AUTO 35007KT 9SM FEW011 SCT016 BKN042 04/04 A2954 RMK AO1 PRESRR SLP021
SPECI CYNL 262341Z AUTO 00008KT 3SM SCT011 BKN040 05/03 A2953 RMK AO1 SLP018
SPECI CYNL 262339Z AUTO 00008KT 1 3/4SM SCT011 BKN040 05/04 A2953 RMK AO1 SLP018
SPECI CYNL 262318Z AUTO 00007G16KT 9SM SCT011 BKN039 05/04 A2952 RMK AO1 SLP015
METAR CYNL 262300Z AUTO 00005KT 9SM BKN011 05/04 A2952 RMK AO1 SLP012
SPECI CYNL 262257Z AUTO 01004KT 9SM BKN011 05/04 A2952 RMK AO1 SLP011
SPECI CYNL 262255Z AUTO 34005KT 9SM FEW009 SCT012 BKN016 05/04 A2952 RMK AO1 SLP011
SPECI CYNL 262251Z AUTO 35006KT 4SM FEW007 SCT010 BKN013 05/04 A2952 RMK AO1 SLP011
SPECI CYNL 262250Z AUTO 35006KT 2 1/2SM FEW007 SCT010 BKN013 05/04 A2952 RMK AO1 SLP011
SPECI CYNL 262248Z AUTO 34007KT 1 3/4SM FEW007 SCT010 BKN013 05/04 A2952 RMK AO1 SLP011
SPECI CYNL 262236Z AUTO 33006KT 4SM FEW007 SCT011 BKN014 05/04 A2951 RMK AO1 SLP010
SPECI CYNL 262235Z AUTO 33006KT 1 1/4SM FEW007 BKN012 BKN016 05/04 A2951 RMK AO1 SLP010
SPECI CYNL 262234Z AUTO 33006KT 3/4SM FEW007 BKN012 OVC017 05/04 A2951 RMK AO1 SLP010
SPECI CYNL 262233Z AUTO 33007KT 5/8SM FEW007 BKN012 OVC017 05/04 A2951 RMK AO1 SLP010
SPECI CYNL 262231Z AUTO 33005KT 1 1/4SM FEW007 SCT010 BKN013 05/04 A2951 RMK AO1 SLP009
SPECI CYNL 262228Z AUTO 34004KT 9SM FEW007 SCT010 BKN013 05/04 A2951 RMK AO1 SLP009
SPECI CYNL 262226Z AUTO 32004KT 9SM VV008 05/04 A2951 RMK AO1 SLP009
SPECI CYNL 262225Z AUTO 32004KT 4SM VV010 05/04 A2951 RMK AO1 SLP009
SPECI CYNL 262224Z AUTO 33004KT 2SM VV010 05/04 A2951 RMK AO1 SLP009
SPECI CYNL 262222Z AUTO 34005KT 1SM VV011 05/04 A2951 RMK AO1 SLP009
SPECI CYNL 262221Z AUTO 34006KT 5/8SM VV011 05/04 A2951 RMK AO1 SLP009
SPECI CYNL 262219Z AUTO 34006KT 1SM VV012 05/04 A2951 RMK AO1 SLP009
SPECI CYNL 262218Z AUTO 34006KT 3/4SM VV012 05/04 A2951 RMK AO1 SLP009
SPECI CYNL 262213Z AUTO 33007KT 5/8SM VV013 05/04 A2951 RMK AO1 SLP008
SPECI CYNL 262212Z AUTO 33007KT 3/4SM VV014 05/04 A2951 RMK AO1 SLP008
SPECI CYNL 262211Z AUTO 33006KT 1SM FEW012 SCT016 05/04 A2951 RMK AO1 SLP007
SPECI CYNL 262210Z AUTO 33005KT 1 1/2SM FEW012 SCT016 05/04 A2951 RMK AO1 SLP007
METAR CYNL 262200Z AUTO 33007KT 9SM FEW009 05/03 A2950 RMK AO1 SLP006
SPECI CYNL 262148Z AUTO 35006KT 9SM FEW007 SCT011 05/03 A2950 RMK AO1 PRESRR SLP003
SPECI CYNL 262147Z AUTO 35006KT 9SM SCT011 05/04 A2950 RMK AO1 PRESRR SLP003
SPECI CYNL 262140Z AUTO 34007KT 9SM FEW007 BKN010 05/04 A2950 RMK AO1 PRESRR SLP003
SPECI CYNL 262135Z AUTO 33005KT 3SM BKN011 BKN017 05/04 A2950 RMK AO1 PRESRR SLP003
SPECI CYNL 262134Z AUTO 33006KT 2 1/2SM BKN011 05/04 A2950 RMK AO1 PRESRR SLP003
SPECI CYNL 262129Z AUTO 35006KT 5SM VV011 05/04 A2949 RMK AO1 PRESRR SLP002
SPECI CYNL 262127Z AUTO 00007KT 2SM VV011 05/04 A2949 RMK AO1 PRESRR SLP002
SPECI CYNL 262124Z AUTO 35007KT 1 3/4SM BKN011 05/04 A2949 RMK AO1 PRESRR SLP002
SPECI CYNL 262122Z AUTO 35009KT 2 1/2SM BKN011 05/04 A2949 RMK AO1 PRESRR SLP001
SPECI CYNL 262120Z AUTO 35009KT 7SM BKN011 05/03 A2949 RMK AO1 PRESRR SLP001
SPECI CYNL 262112Z AUTO 35008KT 9SM FEW009 SCT012 BKN017 05/03 A2949 RMK AO1 PRESRR SLP001
SPECI CYNL 262101Z AUTO 34006KT 9SM FEW009 BKN012 05/03 A2949 RMK AO1 PRESRR SLP999
METAR CYNL 262100Z AUTO 34007KT 9SM BKN011 06/03 A2949 RMK AO1 PRESRR SLP999
SPECI CYNL 262058Z AUTO 35006KT 9SM FEW009 BKN012 05/03 A2948 RMK AO1 PRESRR SLP998
SPECI CYNL 262056Z AUTO 00005KT 9SM SCT010 BKN014 05/03 A2948 RMK AO1 PRESRR SLP998
SPECI CYNL 262055Z AUTO 35005KT 9SM FEW009 SCT011 BKN015 05/03 A2948 RMK AO1 PRESRR SLP998
SPECI CYNL 262054Z AUTO 35005KT 9SM FEW010 SCT011 BKN015 05/03 A2948 RMK AO1 PRESRR SLP998
SPECI CYNL 262051Z AUTO 01006KT 9SM SCT010 BKN014 05/03 A2948 RMK AO1 PRESRR SLP997
SPECI CYNL 262049Z AUTO 01006KT 9SM FEW009 SCT011 BKN015 05/03 A2948 RMK AO1 PRESRR SLP997
SPECI CYNL 262044Z AUTO 34006KT 9SM SCT009 BKN013 BKN018 05/03 A2948 RMK AO1 PRESRR SLP997
SPECI CYNL 262036Z AUTO 01007KT 7SM BKN014 05/03 A2948 RMK AO1 PRESRR SLP996
SPECI CYNL 262031Z AUTO 01009KT 9SM SCT015 BKN022 05/03 A2948 RMK AO1 PRESRR SLP995
METAR CYNL 262000Z AUTO 01007KT 9SM FEW015 SCT019 05/03 A2947 RMK AO1 PRESRR SLP992
SPECI CYNL 261920Z AUTO 02010G15KT 3SM SCT013 05/03 A2945 RMK AO1 SLP986
SPECI CYNL 261918Z AUTO 02010KT 2SM SCT013 05/04 A2945 RMK AO1 SLP986
SPECI CYNL 261903Z AUTO 00006KT 9SM SCT011 05/03 A2945 RMK AO1 SLP985
SPECI CYNL 261901Z AUTO 35007KT 9SM SCT010 BKN017 05/03 A2945 RMK AO1 SLP984
METAR CYNL 261900Z AUTO 35006KT 9SM SCT010 BKN013 05/03 A2944 RMK AO1 SLP984
SPECI CYNL 261857Z AUTO 01005KT 6SM VV012 05/04 A2944 RMK AO1 SLP984
SPECI CYNL 261856Z AUTO 00005KT 2 1/2SM VV012 05/04 A2944 RMK AO1 SLP984
SPECI CYNL 261853Z AUTO 02008KT 1 1/4SM BKN011 05/04 A2944 RMK AO1 SLP984
SPECI CYNL 261851Z AUTO 04008KT 1 3/4SM BKN011 05/04 A2944 RMK AO1 SLP983
SPECI CYNL 261850Z AUTO 04008KT 3SM FEW008 BKN011 05/04 A2944 RMK AO1 SLP983
SPECI CYNL 261849Z AUTO 03007KT 9SM BKN011 05/04 A2944 RMK AO1 SLP983
SPECI CYNL 261848Z AUTO 01007KT 9SM SCT011 BKN015 05/04 A2944 RMK AO1 SLP983
SPECI CYNL 261838Z AUTO 01007KT 9SM VV011 05/04 A2944 RMK AO1 SLP982
SPECI CYNL 261837Z AUTO 01007KT 2 1/2SM VV011 05/04 A2944 RMK AO1 SLP982
SPECI CYNL 261834Z AUTO 02007KT 1 1/4SM BKN010 05/04 A2944 RMK AO1 SLP981
SPECI CYNL 261828Z AUTO 35005KT 9SM SCT010 BKN014 05/03 A2944 RMK AO1 SLP980
SPECI CYNL 261826Z AUTO 02005KT 9SM SCT010 BKN018 05/03 A2944 RMK AO1 SLP980
SPECI CYNL 261825Z AUTO 01005KT 9SM SCT010 BKN110 05/03 A2944 RMK AO1 SLP980
SPECI CYNL 261808Z AUTO 35004KT 9SM BKN010 BKN014 05/04 A2943 RMK AO1 SLP979
SPECI CYNL 261807Z AUTO 00004KT 9SM BKN009 BKN013 05/04 A2943 RMK AO1 SLP979
SPECI CYNL 261806Z AUTO 00005KT 9SM SCT009 BKN011 BKN013 05/04 A2943 RMK AO1 SLP979
SPECI CYNL 261802Z AUTO 01004KT 6SM VV010 04/04 A2943 RMK AO1 SLP979
METAR CYNL 261800Z AUTO 02005KT 2SM VV010 04/04 A2943 RMK AO1 SLP979
SPECI CYNL 261757Z AUTO 02006KT 2 1/2SM BKN009 BKN014 05/04 A2943 RMK AO1 SLP979
SPECI CYNL 261756Z AUTO 01005KT 1 3/4SM BKN009 BKN014 05/04 A2943 RMK AO1 SLP978
SPECI CYNL 261754Z AUTO 00003KT 2 1/2SM FEW007 BKN009 BKN014 05/04 A2943 RMK AO1 SLP978
SPECI CYNL 261753Z AUTO 35002KT 5SM FEW007 BKN009 BKN014 05/04 A2943 RMK AO1 SLP978
SPECI CYNL 261742Z AUTO 35005KT 9SM SCT007 BKN011 BKN015 04/03 A2942 RMK AO1 SLP977
SPECI CYNL 261739Z AUTO 35005KT 9SM BKN007 BKN014 04/03 A2942 RMK AO1 SLP977
SPECI CYNL 261736Z AUTO 34004KT 9SM SCT007 BKN011 BKN014 04/03 A2942 RMK AO1 SLP977
SPECI CYNL 261720Z AUTO 34005KT 4SM SCT006 BKN008 BKN032 04/04 A2942 RMK AO1 SLP977
SPECI CYNL 261710Z AUTO 00004KT 9SM FEW006 SCT008 BKN011 04/03 A2942 RMK AO1 SLP976
SPECI CYNL 261709Z AUTO 01004KT 9SM VV007 04/03 A2942 RMK AO1 SLP976
SPECI CYNL 261706Z AUTO 34006KT 4SM FEW006 SCT008 BKN011 04/03 A2942 RMK AO1 SLP976
SPECI CYNL 261704Z AUTO 34005KT 2 1/2SM FEW006 SCT008 BKN011 04/03 A2942 RMK AO1 SLP976
METAR CYNL 261700Z AUTO 02005KT 9SM SCT007 BKN011 04/03 A2942 RMK AO1 SLP975
SPECI CYNL 261654Z AUTO 00004KT 9SM SCT007 BKN011 04/03 A2942 RMK AO1 SLP975
SPECI CYNL 261650Z AUTO 01004KT 9SM SCT007 04/03 A2942 RMK AO1 SLP975
SPECI CYNL 261622Z AUTO 02005KT 3SM SCT006 BKN008 BKN010 04/03 A2941 RMK AO1 SLP973
SPECI CYNL 261620Z AUTO 02006KT 2SM SCT006 BKN008 BKN010 04/03 A2941 RMK AO1 SLP973
METAR CYNL 261600Z AUTO 03007KT 9SM BKN007 BKN024 03/03 A2941 RMK AO1 SLP973
SPECI CYNL 261514Z AUTO 02003KT 3SM VV005 03/03 A2940 RMK AO1 SLP970
SPECI CYNL 261511Z AUTO 01003KT 2 1/2SM BKN006 03/03 A2940 RMK AO1 SLP970
SPECI CYNL 261508Z AUTO 02004KT 9SM BKN006 03/03 A2940 RMK AO1 SLP970
SPECI CYNL 261506Z AUTO 02003KT 9SM SCT006 03/03 A2940 RMK AO1 SLP970
SPECI CYNL 261505Z AUTO 01003KT 9SM BKN006 03/03 A2940 RMK AO1 SLP969
SPECI CYNL 261501Z AUTO 02004KT 9SM SCT006 03/03 A2940 RMK AO1 SLP969
METAR CYNL 261500Z AUTO 02004KT 9SM BKN006 03/03 A2940 RMK AO1 SLP969
SPECI CYNL 261444Z AUTO 02004KT 9SM VV006 03/03 A2939 RMK AO1 SLP968
SPECI CYNL 261424Z AUTO 02006KT 9SM SCT005 03/03 A2939 RMK AO1 SLP966
SPECI CYNL 261415Z AUTO 02006KT 6SM VV006 03/03 A2939 RMK AO1 SLP966
SPECI CYNL 261414Z AUTO 02005KT 2 1/2SM VV006 03/03 A2939 RMK AO1 SLP966
SPECI CYNL 261410Z AUTO 02005KT 1 3/4SM VV005 03/03 A2939 RMK AO1 SLP966
SPECI CYNL 261409Z AUTO 02005KT 1 3/4SM VV004 03/03 A2939 RMK AO1 SLP965
SPECI CYNL 261407Z AUTO 03005KT 2 1/2SM VV005 03/03 A2939 RMK AO1 SLP965
SPECI CYNL 261402Z AUTO 03005KT 9SM VV005 03/03 A2939 RMK AO1 SLP965
METAR CYNL 261400Z AUTO 03005KT 9SM FEW005 03/03 A2939 RMK AO1 SLP965
SPECI CYNL 261335Z AUTO 04006KT 9SM SCT005 03/03 A2938 RMK AO1 SLP962
SPECI CYNL 261333Z AUTO 04006KT 9SM SCT005 BKN016 03/03 A2938 RMK AO1 SLP962
SPECI CYNL 261326Z AUTO 02005KT 5SM VV005 03/03 A2937 RMK AO1 SLP961
SPECI CYNL 261325Z AUTO 02004KT 2 1/2SM VV005 03/03 A2937 RMK AO1 SLP961
SPECI CYNL 261324Z AUTO 03004KT 1 1/2SM VV005 03/03 A2937 RMK AO1 SLP961
SPECI CYNL 261323Z AUTO 03004KT 1SM VV005 03/03 A2937 RMK AO1 SLP961
SPECI CYNL 261321Z AUTO 01004KT 5/8SM VV005 03/03 A2937 RMK AO1 SLP960
SPECI CYNL 261319Z AUTO 01004KT 1 1/4SM VV005 03/03 A2937 RMK AO1 SLP960
SPECI CYNL 261318Z AUTO 01005KT 1 3/4SM VV005 03/03 A2937 RMK AO1 SLP960
SPECI CYNL 261315Z AUTO 01005KT 1 1/4SM VV005 03/03 A2937 RMK AO1 SLP960
SPECI CYNL 261314Z AUTO 00004KT 1 3/4SM VV004 03/03 A2937 RMK AO1 SLP959
SPECI CYNL 261313Z AUTO 01003KT 2SM VV005 03/03 A2937 RMK AO1 SLP959
SPECI CYNL 261302Z AUTO 03006KT 4SM VV006 03/03 A2937 RMK AO1 SLP959
SPECI CYNL 261301Z AUTO 03005KT 2SM VV006 03/03 A2937 RMK AO1 SLP959
METAR CYNL 261300Z AUTO 03005KT 1 3/4SM VV005 03/03 A2937 RMK AO1 SLP959
SPECI CYNL 261256Z AUTO 02004KT 1 3/4SM VV005 04/03 A2937 RMK AO1 SLP958
SPECI CYNL 261249Z AUTO 03004KT 3SM VV005 04/03 A2937 RMK AO1 SLP958
SPECI CYNL 261248Z AUTO 03004KT 2 1/2SM VV005 04/03 A2937 RMK AO1 SLP958
SPECI CYNL 261222Z AUTO 02003KT 3SM VV005 04/04 A2936 RMK AO1 SLP955
SPECI CYNL 261221Z AUTO 03003KT 2 1/2SM VV005 04/04 A2936 RMK AO1 SLP955
SPECI CYNL 261219Z AUTO 03004KT 1 3/4SM VV005 04/04 A2936 RMK AO1 SLP955
SPECI CYNL 261218Z AUTO 02004KT 2 1/2SM VV005 04/04 A2936 RMK AO1 SLP955
SPECI CYNL 261214Z AUTO 04004KT 3SM VV006 04/04 A2936 RMK AO1 SLP954
SPECI CYNL 261213Z AUTO 04003KT 2SM VV007 04/04 A2936 RMK AO1 SLP954
SPECI CYNL 261209Z AUTO 04004KT 1 1/2SM VV006 04/04 A2936 RMK AO1 SLP954
SPECI CYNL 261208Z AUTO 04004KT 1SM VV006 04/04 A2936 RMK AO1 SLP954
SPECI CYNL 261207Z AUTO 05004KT 3/4SM VV007 04/04 A2936 RMK AO1 SLP954
SPECI CYNL 261206Z AUTO 05005KT 5/8SM VV007 04/04 A2936 RMK AO1 SLP954
SPECI CYNL 261204Z AUTO 06005KT 1 1/4SM VV008 04/04 A2936 RMK AO1 SLP954
SPECI CYNL 261203Z AUTO 06005KT 2 1/2SM VV009 04/04 A2936 RMK AO1 SLP954
METAR CYNL 261200Z AUTO 06005KT 6SM VV012 04/04 A2936 RMK AO1 SLP954
SPECI CYNL 261141Z AUTO 04004KT 4SM VV010 04/04 A2936 RMK AO1 SLP954
SPECI CYNL 261136Z AUTO 04005KT 1SM VV006 04/04 A2935 RMK AO1 SLP953
SPECI CYNL 261132Z AUTO 05005KT 1/2SM VV006 04/04 A2935 RMK AO1 SLP953
SPECI CYNL 261127Z AUTO 03004KT 1 1/4SM VV006 04/04 A2935 RMK AO1 SLP953
SPECI CYNL 261126Z AUTO 03003KT 2 1/2SM VV006 04/04 A2935 RMK AO1 SLP953
SPECI CYNL 261123Z AUTO 04004KT 8SM VV008 04/04 A2935 RMK AO1 SLP953
SPECI CYNL 261113Z AUTO 04005KT 9SM FEW008 SCT019 04/04 A2935 RMK AO1 SLP951
SPECI CYNL 261104Z AUTO 04005KT 9SM SCT008 BKN020 04/04 A2935 RMK AO1 SLP950
METAR CYNL 261100Z AUTO 04005KT 9SM BKN008 BKN021 04/04 A2935 RMK AO1 SLP950
SPECI CYNL 261041Z AUTO 03006KT 3SM VV007 04/04 A2934 RMK AO1 SLP947
SPECI CYNL 261040Z AUTO 03007KT 2 1/2SM VV007 04/04 A2934 RMK AO1 SLP947
SPECI CYNL 261035Z AUTO 03008KT 1 1/2SM VV006 04/04 A2934 RMK AO1 SLP946
SPECI CYNL 261029Z AUTO 03006KT 1SM VV006 05/05 A2933 RMK AO1 SLP945
SPECI CYNL 261027Z AUTO 03006KT 3/4SM VV005 05/05 A2933 RMK AO1 SLP945
SPECI CYNL 261023Z AUTO 03005KT 1/2SM VV006 05/05 A2933 RMK AO1 SLP944
SPECI CYNL 261022Z AUTO 02004KT 3/4SM VV006 05/05 A2933 RMK AO1 SLP944
SPECI CYNL 261018Z AUTO 03006KT 1SM VV005 05/05 A2933 RMK AO1 SLP943
SPECI CYNL 261017Z AUTO 03006KT 3/4SM VV005 05/05 A2933 RMK AO1 SLP943
SPECI CYNL 261012Z AUTO 04005KT 5/8SM VV006 05/05 A2933 RMK AO1 SLP943
SPECI CYNL 261011Z AUTO 04005KT 3/4SM VV005 05/05 A2933 RMK AO1 SLP943
SPECI CYNL 261007Z AUTO 02004KT 1/4SM VV005 05/05 A2933 RMK AO1 SLP943
SPECI CYNL 261003Z AUTO 02002KT 5/8SM VV004 05/05 A2933 RMK AO1 SLP943
SPECI CYNL 261001Z AUTO 02002KT 3/4SM VV003 05/05 A2933 RMK AO1 SLP942
METAR CYNL 261000Z AUTO 02003KT 1SM VV003 05/05 A2933 RMK AO1 SLP942
SPECI CYNL 260950Z AUTO 04003KT 1SM SCT003 BKN013 05/05 A2933 RMK AO1 SLP942
SPECI CYNL 260949Z AUTO 03004KT 1 1/4SM VV003 05/05 A2933 RMK AO1 SLP941
SPECI CYNL 260948Z AUTO 04004KT 1 3/4SM VV003 05/05 A2933 RMK AO1 SLP941
SPECI CYNL 260947Z AUTO 04005KT 2 1/2SM VV003 05/05 A2933 RMK AO1 SLP941
SPECI CYNL 260942Z AUTO 04004KT 9SM VV004 05/05 A2933 RMK AO1 SLP941
SPECI CYNL 260933Z AUTO 04005KT 9SM FEW005 OVC013 05/05 A2932 RMK AO1 SLP940
SPECI CYNL 260914Z AUTO 04005KT 7SM VV010 06/06 A2932 RMK AO1 SLP939
SPECI CYNL 260911Z AUTO 03006KT 3SM VV008 06/06 A2932 RMK AO1 SLP939
SPECI CYNL 260909Z AUTO 04006KT 2SM VV006 06/06 A2932 RMK AO1 SLP939
SPECI CYNL 260908Z AUTO 04007KT 1 1/2SM VV005 06/06 A2932 RMK AO1 SLP938
SPECI CYNL 260907Z AUTO 04007KT 1 1/4SM VV005 06/06 A2932 RMK AO1 SLP938
SPECI CYNL 260906Z AUTO 04007KT 3/4SM VV005 06/06 A2932 RMK AO1 SLP938
METAR CYNL 260900Z AUTO 04006KT 5/8SM VV006 06/06 A2932 RMK AO1 SLP938
SPECI CYNL 260856Z AUTO 04007KT 3/4SM VV006 06/06 A2931 RMK AO1 SLP937
SPECI CYNL 260853Z AUTO 04006KT 1SM VV006 06/06 A2931 RMK AO1 SLP937
SPECI CYNL 260844Z AUTO 34007KT 300V010 3/4SM VV006 06/06 A2931 RMK AO1 SLP935
SPECI CYNL 260841Z AUTO 33005KT 300V000 5/8SM VV006 07/07 A2931 RMK AO1 SLP935
SPECI CYNL 260839Z AUTO 33005KT 1 1/4SM VV006 07/07 A2931 RMK AO1 SLP934
SPECI CYNL 260831Z AUTO 30006KT 1 1/2SM VV007 07/07 A2931 RMK AO1 SLP934
SPECI CYNL 260827Z AUTO 30005KT 1 1/4SM VV006 07/07 A2931 RMK AO1 SLP934
SPECI CYNL 260822Z AUTO 31005KT 1 1/2SM VV006 07/07 A2931 RMK AO1 SLP934
SPECI CYNL 260808Z AUTO 30006KT 1 1/4SM VV007 07/07 A2931 RMK AO1 SLP934
SPECI CYNL 260806Z AUTO 30006KT 1 1/2SM VV008 07/07 A2931 RMK AO1 SLP933
SPECI CYNL 260804Z AUTO 30006KT 1 1/4SM VV008 07/07 A2931 RMK AO1 SLP933
SPECI CYNL 260801Z AUTO 30006KT 1 1/2SM VV007 07/07 A2931 RMK AO1 SLP933
METAR CYNL 260800Z AUTO 30006KT 1 1/4SM VV007 07/07 A2931 RMK AO1 SLP933
SPECI CYNL 260754Z AUTO 30005KT 1 1/4SM VV006 07/07 A2931 RMK AO1 SLP933
SPECI CYNL 260749Z AUTO 30005KT 1 1/2SM VV006 07/07 A2930 RMK AO1 SLP933
SPECI CYNL 260743Z AUTO 30005KT 1 1/4SM VV007 07/07 A2930 RMK AO1 SLP932
SPECI CYNL 260741Z AUTO 30006KT 1 1/2SM VV007 07/07 A2930 RMK AO1 SLP932
SPECI CYNL 260738Z AUTO 30007KT 1 1/4SM VV006 07/07 A2930 RMK AO1 SLP932
SPECI CYNL 260732Z AUTO 30007KT 1 1/2SM VV006 07/07 A2930 RMK AO1 SLP932
SPECI CYNL 260730Z AUTO 30005KT 1 1/4SM VV005 07/07 A2930 RMK AO1 SLP932
SPECI CYNL 260723Z AUTO 29005KT 1 3/4SM SCT005 OVC008 07/07 A2930 RMK AO1 SLP931
SPECI CYNL 260720Z AUTO 29005KT 2SM VV007 07/07 A2930 RMK AO1 SLP931
SPECI CYNL 260717Z AUTO 29005KT 1 1/2SM VV006 07/07 A2930 RMK AO1 SLP931
SPECI CYNL 260712Z AUTO 28005KT 1 1/4SM VV006 07/07 A2930 RMK AO1 SLP930
SPECI CYNL 260710Z AUTO 29005KT 1 3/4SM VV006 07/07 A2930 RMK AO1 SLP930
SPECI CYNL 260708Z AUTO 28005KT 2 1/2SM VV006 07/07 A2930 RMK AO1 SLP930
METAR CYNL 260700Z AUTO 29006KT 3SM VV006 07/07 A2930 RMK AO1 SLP930
SPECI CYNL 260654Z AUTO 30006KT 3SM VV006 07/07 A2930 RMK AO1 SLP930
SPECI CYNL 260650Z AUTO 29005KT 4SM BKN004 OVC007 07/07 A2930 RMK AO1 SLP930
SPECI CYNL 260649Z AUTO 29005KT 2SM BKN004 OVC007 07/07 A2930 RMK AO1 SLP930
SPECI CYNL 260648Z AUTO 29005KT 1 1/2SM BKN004 OVC006 07/07 A2930 RMK AO1 SLP930
SPECI CYNL 260647Z AUTO 28003KT 1 1/4SM OVC005 07/07 A2930 RMK AO1 SLP930
SPECI CYNL 260646Z AUTO 29003KT 1 1/4SM BKN004 OVC006 07/07 A2930 RMK AO1 SLP930
SPECI CYNL 260645Z AUTO 29004KT 1 1/4SM VV005 07/07 A2930 RMK AO1 SLP930
SPECI CYNL 260642Z AUTO 30005KT 1 3/4SM VV005 07/07 A2930 RMK AO1 SLP930
SPECI CYNL 260640Z AUTO 29006KT 2 1/2SM VV005 07/07 A2930 RMK AO1 SLP929
SPECI CYNL 260639Z AUTO 29006KT 3SM VV005 07/07 A2930 RMK AO1 SLP929
SPECI CYNL 260637Z AUTO 29005KT 2SM VV005 07/07 A2930 RMK AO1 SLP930
SPECI CYNL 260636Z AUTO 30005KT 1 3/4SM OVC005 07/07 A2930 RMK AO1 SLP930
SPECI CYNL 260634Z AUTO 30004KT 2 1/2SM OVC005 07/07 A2930 RMK AO1 SLP930
SPECI CYNL 260611Z AUTO 29007KT 9SM OVC005 07/07 A2930 RMK AO1 SLP931
SPECI CYNL 260610Z AUTO 29006KT 9SM BKN004 OVC006 07/07 A2930 RMK AO1 SLP931
METAR CYNL 260600Z AUTO 28005KT 9SM VV005 07/07 A2930 RMK AO1 SLP932
SPECI CYNL 260555Z AUTO 29004KT 4SM BKN004 OVC006 07/07 A2930 RMK AO1 SLP932
SPECI CYNL 260554Z AUTO 29004KT 2 1/2SM OVC004 07/07 A2930 RMK AO1 SLP932
SPECI CYNL 260553Z AUTO 28004KT 2SM OVC005 07/07 A2930 RMK AO1 SLP932
SPECI CYNL 260551Z AUTO 29004KT 2 1/2SM VV004 07/07 A2930 RMK AO1 SLP932
SPECI CYNL 260548Z AUTO 28004KT 3SM VV004 07/07 A2930 RMK AO1 SLP932
METAR CYNL 260500Z AUTO 28005KT 9SM SCT005 OVC008 07/07 A2931 RMK AO1 SLP932
METAR CYNL 260400Z AUTO 28007KT 9SM BKN007 OVC012 07/07 A2931 RMK AO1 SLP933
SPECI CYNL 260321Z AUTO 29007KT 3SM VV006 07/07 A2930 RMK AO1 SLP931
SPECI CYNL 260314Z AUTO 29008KT 2SM VV006 07/07 A2930 RMK AO1 SLP931
SPECI CYNL 260312Z AUTO 29007KT 1 1/2SM VV005 07/07 A2930 RMK AO1 SLP930
METAR CYNL 260300Z AUTO 28007KT 1SM VV005 07/07 A2930 RMK AO1 SLP931
SPECI CYNL 260258Z AUTO 27007KT 1SM VV005 07/07 A2930 RMK AO1 SLP931
SPECI CYNL 260257Z AUTO 28007KT 1SM VV004 07/07 A2930 RMK AO1 SLP931
SPECI CYNL 260253Z AUTO 28007KT 1 1/4SM BKN005 OVC007 07/07 A2930 RMK AO1 SLP931
SPECI CYNL 260252Z AUTO 27007KT 1 1/2SM BKN004 BKN006 OVC008 07/07 A2930 RMK AO1 SLP931
SPECI CYNL 260251Z AUTO 27006KT 2 1/2SM BKN005 OVC007 07/07 A2930 RMK AO1 SLP931
SPECI CYNL 260247Z AUTO 28005KT 9SM BKN005 OVC007 07/07 A2930 RMK AO1 SLP930
SPECI CYNL 260241Z AUTO 28007KT 4SM BKN004 OVC007 07/07 A2930 RMK AO1 SLP931
SPECI CYNL 260240Z AUTO 27005KT 2 1/2SM BKN004 OVC006 07/07 A2930 RMK AO1 SLP931
SPECI CYNL 260236Z AUTO 29004KT 1 1/2SM VV004 07/07 A2930 RMK AO1 SLP930
SPECI CYNL 260231Z AUTO 29004KT 1SM VV005 07/07 A2930 RMK AO1 SLP930
SPECI CYNL 260227Z AUTO 30006KT 1SM VV004 07/07 A2930 RMK AO1 SLP930
SPECI CYNL 260223Z AUTO 31004KT 1 1/4SM VV005 07/07 A2930 RMK AO1 SLP930
SPECI CYNL 260219Z AUTO 30006KT 1 3/4SM VV006 07/07 A2930 RMK AO1 SLP930
SPECI CYNL 260217Z AUTO 30006KT 2 1/2SM VV006 07/07 A2930 RMK AO1 SLP930
METAR CYNL 260200Z AUTO 30006KT 3SM VV005 07/07 A2930 RMK AO1 SLP930
SPECI CYNL 260159Z AUTO 30006KT 2SM VV005 07/07 A2930 RMK AO1 SLP930
SPECI CYNL 260158Z AUTO 30005KT 1 1/2SM VV005 07/07 A2930 RMK AO1 SLP930
SPECI CYNL 260155Z AUTO 30005KT 1 1/4SM VV005 07/07 A2930 RMK AO1 SLP930
SPECI CYNL 260154Z AUTO 30005KT 1 1/2SM VV006 07/07 A2930 RMK AO1 SLP930
SPECI CYNL 260140Z AUTO 31006KT 2 1/2SM BKN006 OVC008 08/07 A2929 RMK AO1 SLP928
SPECI CYNL 260107Z AUTO 30007KT 4SM BKN007 BKN008 OVC011 08/08 A2929 RMK AO1 SLP926
SPECI CYNL 260102Z AUTO 30006KT 2SM BKN007 OVC009 08/08 A2929 RMK AO1 SLP926
METAR CYNL 260100Z AUTO 30006KT 1 3/4SM BKN007 OVC009 08/08 A2929 RMK AO1 SLP926
SPECI CYNL 260059Z AUTO 29006KT 1 3/4SM BKN007 OVC009 08/08 A2929 RMK AO1 SLP926
SPECI CYNL 260058Z AUTO 30006KT 2 1/2SM OVC007 08/08 A2929 RMK AO1 SLP926
SPECI CYNL 260031Z AUTO 30007KT 9SM FEW007 BKN009 08/08 A2928 RMK AO1 SLP924
SPECI CYNL 260029Z AUTO 30005KT 9SM FEW007 SCT009 BKN010 08/08 A2928 RMK AO1 SLP924
SPECI CYNL 260027Z AUTO 30006KT 9SM FEW007 BKN009 08/08 A2928 RMK AO1 SLP924
SPECI CYNL 260023Z AUTO 30007KT 9SM FEW007 SCT008 BKN010 08/08 A2928 RMK AO1 SLP924
SPECI CYNL 260021Z AUTO 30007KT 9SM BKN008 08/08 A2928 RMK AO1 SLP924
SPECI CYNL 260020Z AUTO 30007KT 9SM FEW007 SCT008 BKN010 08/08 A2928 RMK AO1 SLP924
METAR CYNL 260000Z AUTO 30007KT 5SM BKN006 OVC012 08/08 A2928 RMK AO1 SLP924
SPECI CYNL 252340Z AUTO 30008KT 3SM BKN006 OVC009 08/08 A2927 RMK AO1 SLP921
SPECI CYNL 252337Z AUTO 29007KT 2 1/2SM BKN007 OVC009 08/08 A2927 RMK AO1 SLP921
SPECI CYNL 252307Z AUTO 30008KT 9SM BKN008 08/08 A2926 RMK AO1 SLP917
METAR CYNL 252300Z AUTO 30009KT 9SM SCT007 08/08 A2926 RMK AO1 SLP917
SPECI CYNL 252256Z AUTO 30009KT 9SM SCT007 08/08 A2926 RMK AO1 SLP917
SPECI CYNL 252253Z AUTO 30007G17KT 9SM FEW007 SCT012 BKN014 08/08 A2926 RMK AO1 SLP916
SPECI CYNL 252248Z AUTO 30009G17KT 9SM FEW007 SCT011 08/08 A2926 RMK AO1 SLP916
SPECI CYNL 252225Z AUTO 29009G16KT 9SM SCT006 BKN012 BKN028 08/08 A2926 RMK AO1 SLP915
SPECI CYNL 252223Z AUTO 29009G16KT 9SM VV010 08/08 A2926 RMK AO1 SLP915
SPECI CYNL 252213Z AUTO 29008G15KT 4SM FEW006 BKN008 08/08 A2925 RMK AO1 SLP913
SPECI CYNL 252207Z AUTO 30010G18KT 9SM FEW008 BKN013 08/08 A2925 RMK AO1 SLP913
SPECI CYNL 252205Z AUTO 30010G18KT 9SM FEW008 SCT012 BKN028 08/08 A2925 RMK AO1 SLP912
METAR CYNL 252200Z AUTO 29011G18KT 9SM FEW009 BKN013 08/08 A2925 RMK AO1 SLP912
SPECI CYNL 252124Z AUTO 29009G20KT 7SM FEW009 BKN012 BKN018 08/08 A2923 RMK AO1 SLP907
SPECI CYNL 252121Z AUTO 29007G20KT 6SM VV011 08/08 A2923 RMK AO1 SLP907
SPECI CYNL 252120Z AUTO 29006G20KT 5SM FEW009 SCT011 BKN015 08/08 A2923 RMK AO1 SLP907
SPECI CYNL 252109Z AUTO 29009G16KT 4SM FEW007 BKN012 OVC018 08/08 A2923 RMK AO1 SLP906
SPECI CYNL 252107Z AUTO 29011KT 3SM VV014 08/08 A2923 RMK AO1 SLP906
SPECI CYNL 252103Z AUTO 30008KT 3SM VV019 08/08 A2923 RMK AO1 SLP905
METAR CYNL 252100Z AUTO 29009KT 2 1/2SM VV020 08/08 A2923 RMK AO1 SLP905
SPECI CYNL 252056Z AUTO 29008G16KT 2SM VV015 08/08 A2923 RMK AO1 SLP905
SPECI CYNL 252055Z AUTO 29007G16KT 2SM VV014 08/08 A2923 RMK AO1 SLP905
SPECI CYNL 252049Z AUTO 29010G16KT 1 1/2SM SCT007 OVC012 08/08 A2922 RMK AO1 SLP904
SPECI CYNL 252046Z AUTO 29010G16KT 1 1/4SM FEW006 SCT009 OVC012 08/08 A2922 RMK AO1 SLP903
SPECI CYNL 252039Z AUTO 29009KT 1 3/4SM FEW006 SCT009 OVC013 08/08 A2922 RMK AO1 SLP902
SPECI CYNL 252032Z AUTO 29009KT 2SM VV012 08/08 A2922 RMK AO1 SLP901
SPECI CYNL 252031Z AUTO 29009KT 1 3/4SM VV011 08/08 A2922 RMK AO1 SLP901
SPECI CYNL 252029Z AUTO 29010KT 1 1/2SM SCT006 BKN009 BKN012 08/08 A2922 RMK AO1 SLP901
SPECI CYNL 252025Z AUTO 29007KT 2 1/2SM SCT006 BKN009 OVC015 08/08 A2921 RMK AO1 SLP900
SPECI CYNL 252008Z AUTO 28008KT 3SM SCT006 BKN008 OVC010 08/08 A2921 RMK AO1 SLP899
SPECI CYNL 252006Z AUTO 28006KT 2 1/2SM SCT006 BKN008 OVC011 08/08 A2921 RMK AO1 SLP898
SPECI CYNL 252005Z AUTO 28006KT 1 3/4SM BKN006 OVC010 08/08 A2921 RMK AO1 SLP898
SPECI CYNL 252003Z AUTO 28009KT 1 1/4SM VV007 08/08 A2921 RMK AO1 SLP898
SPECI CYNL 252002Z AUTO 28008KT 1 1/2SM VV007 08/08 A2921 RMK AO1 SLP898
METAR CYNL 252000Z AUTO 28008KT 1 1/4SM VV008 08/08 A2921 RMK AO1 SLP898
SPECI CYNL 251950Z AUTO 27007KT 1 1/4SM VV008 08/08 A2920 RMK AO1 SLP897
SPECI CYNL 251948Z AUTO 27007KT 1 1/2SM VV009 08/08 A2920 RMK AO1 SLP897
SPECI CYNL 251944Z AUTO 27007KT 1 1/4SM VV009 08/08 A2920 RMK AO1 SLP897
SPECI CYNL 251942Z AUTO 26007KT 1 1/2SM VV010 08/08 A2920 RMK AO1 SLP897
SPECI CYNL 251941Z AUTO 26008KT 1 1/2SM VV009 08/08 A2920 RMK AO1 SLP897
SPECI CYNL 251930Z AUTO 27007KT 1 1/4SM SCT006 BKN008 OVC010 08/08 A2920 RMK AO1 SLP896
SPECI CYNL 251929Z AUTO 26008KT 1 1/4SM SCT006 OVC010 08/08 A2920 RMK AO1 SLP896
SPECI CYNL 251928Z AUTO 26009KT 1 1/2SM SCT006 BKN009 OVC012 08/08 A2920 RMK AO1 SLP896
SPECI CYNL 251927Z AUTO 26008KT 1 1/2SM SCT006 OVC010 08/08 A2920 RMK AO1 SLP896
SPECI CYNL 251918Z AUTO 26008KT 1 3/4SM VV008 08/08 A2920 RMK AO1 SLP895
SPECI CYNL 251916Z AUTO 27007KT 2SM VV009 08/08 A2920 RMK AO1 SLP895
SPECI CYNL 251912Z AUTO 27007KT 1 1/2SM VV010 08/08 A2920 RMK AO1 SLP894
SPECI CYNL 251904Z AUTO 27008KT 2SM SCT007 BKN010 BKN013 08/08 A2920 RMK AO1 SLP894
SPECI CYNL 251903Z AUTO 27009KT 1 3/4SM SCT007 BKN010 BKN014 08/08 A2920 RMK AO1 SLP894
SPECI CYNL 251901Z AUTO 27008KT 1 3/4SM VV009 08/08 A2920 RMK AO1 SLP893
METAR CYNL 251900Z AUTO 27008KT 2SM SCT007 BKN009 BKN013 08/08 A2920 RMK AO1 SLP893
SPECI CYNL 251859Z AUTO 27008KT 3SM SCT007 BKN009 BKN017 08/08 A2919 RMK AO1 SLP893
SPECI CYNL 251858Z AUTO 27009KT 2SM SCT007 BKN009 BKN017 08/08 A2919 RMK AO1 SLP893
SPECI CYNL 251855Z AUTO 26008KT 1 1/4SM SCT007 BKN014 OVC022 08/08 A2919 RMK AO1 SLP893
SPECI CYNL 251854Z AUTO 26006KT 2 1/2SM SCT007 BKN012 OVC022 09/08 A2919 RMK AO1 SLP893
SPECI CYNL 251852Z AUTO 27007KT 5SM SCT007 BKN014 OVC022 09/08 A2919 RMK AO1 SLP893
SPECI CYNL 251850Z AUTO 27007KT 5SM SCT007 BKN015 BKN022 09/08 A2919 RMK AO1 SLP893
SPECI CYNL 251845Z AUTO 28007KT 4SM VV016 09/08 A2919 RMK AO1 SLP892
SPECI CYNL 251844Z AUTO 28007KT 4SM VV013 09/08 A2919 RMK AO1 SLP892
SPECI CYNL 251826Z AUTO 26006KT 3SM BKN006 BKN013 OVC017 08/08 A2919 RMK AO1 SLP890
SPECI CYNL 251822Z AUTO 27007KT 2 1/2SM SCT006 BKN008 BKN013 08/08 A2918 RMK AO1 SLP890
SPECI CYNL 251812Z AUTO 27006KT 3SM SCT006 BKN008 OVC017 08/08 A2918 RMK AO1 SLP889
SPECI CYNL 251811Z AUTO 27004KT 2 1/2SM SCT006 BKN008 OVC017 08/08 A2918 RMK AO1 SLP889
SPECI CYNL 251809Z AUTO 28006KT 2 1/2SM SCT007 BKN010 OVC017 08/08 A2918 RMK AO1 SLP889
SPECI CYNL 251808Z AUTO 28006KT 3SM SCT006 BKN010 OVC017 08/08 A2918 RMK AO1 SLP889
SPECI CYNL 251803Z AUTO 26004KT 3SM VV015 08/08 A2918 RMK AO1 SLP888
METAR CYNL 251800Z AUTO 27006KT 2 1/2SM VV013 08/08 A2918 RMK AO1 SLP888
SPECI CYNL 251757Z AUTO 27007KT 2 1/2SM VV010 08/08 A2918 RMK AO1 SLP888
SPECI CYNL 251755Z AUTO 27007KT 2SM VV008 08/08 A2918 RMK AO1 SLP888
SPECI CYNL 251742Z AUTO 28008KT 1 1/2SM SCT006 BKN008 OVC012 08/08 A2918 RMK AO1 SLP887
SPECI CYNL 251741Z AUTO 27007KT 1 1/4SM VV007 08/08 A2918 RMK AO1 SLP887
SPECI CYNL 251739Z AUTO 27005KT 1 1/2SM VV007 08/08 A2918 RMK AO1 SLP887
SPECI CYNL 251735Z AUTO 27007KT 1 1/4SM VV008 08/08 A2918 RMK AO1 SLP887
SPECI CYNL 251734Z AUTO 27006KT 1 1/2SM VV008 08/08 A2918 RMK AO1 SLP887
SPECI CYNL 251731Z AUTO 28007KT 1 3/4SM SCT006 BKN011 OVC014 08/08 A2918 RMK AO1 SLP887
SPECI CYNL 251725Z AUTO 26006KT 2 1/2SM SCT006 OVC012 08/08 A2917 RMK AO1 SLP886
SPECI CYNL 251723Z AUTO 26007KT 3SM SCT006 OVC012 08/08 A2917 RMK AO1 SLP886
SPECI CYNL 251722Z AUTO 27008KT 3SM SCT006 BKN009 OVC013 08/08 A2917 RMK AO1 SLP886
SPECI CYNL 251716Z AUTO 26008KT 2 1/2SM BKN006 OVC012 08/08 A2917 RMK AO1 SLP886
SPECI CYNL 251713Z AUTO 28005KT 2 1/2SM SCT006 BKN011 OVC014 08/08 A2917 RMK AO1 SLP886
METAR CYNL 251700Z AUTO 28006KT 3SM SCT006 OVC012 08/08 A2917 RMK AO1 SLP886
SPECI CYNL 251659Z AUTO 28006KT 3SM SCT006 BKN012 OVC013 08/08 A2917 RMK AO1 SLP886
SPECI CYNL 251658Z AUTO 28007KT 3SM SCT006 BKN009 OVC012 08/08 A2917 RMK AO1 SLP886
SPECI CYNL 251657Z AUTO 28006KT 3SM SCT006 OVC011 08/08 A2917 RMK AO1 SLP886
SPECI CYNL 251636Z AUTO 27006KT 3SM SCT006 BKN008 OVC011 08/08 A2917 RMK AO1 SLP884
SPECI CYNL 251631Z AUTO 27005KT 2 1/2SM SCT006 BKN008 BKN009 08/08 A2917 RMK AO1 SLP884
SPECI CYNL 251618Z AUTO 27007KT 7SM VV009 08/08 A2917 RMK AO1 SLP885
SPECI CYNL 251616Z AUTO 27006KT 6SM VV010 08/08 A2917 RMK AO1 SLP884
SPECI CYNL 251604Z AUTO 27007KT 3SM BKN007 OVC009 08/08 A2917 RMK AO1 SLP883
SPECI CYNL 251603Z AUTO 27008KT 2 1/2SM BKN007 OVC009 08/08 A2917 RMK AO1 SLP883
METAR CYNL 251600Z AUTO 27009KT 3SM BKN007 OVC009 08/08 A2916 RMK AO1 SLP883
SPECI CYNL 251559Z AUTO 27008KT 3SM BKN007 OVC009 08/08 A2916 RMK AO1 SLP883
SPECI CYNL 251553Z AUTO 27007KT 2 1/2SM FEW003 BKN007 OVC012 08/08 A2916 RMK AO1 SLP883
SPECI CYNL 251539Z AUTO 28007KT 4SM SCT003 BKN006 OVC008 09/09 A2916 RMK AO1 SLP883
SPECI CYNL 251537Z AUTO 27007KT 2SM SCT003 BKN006 OVC008 09/09 A2916 RMK AO1 SLP882
SPECI CYNL 251532Z AUTO 28007KT 1 1/2SM BKN003 BKN005 OVC007 09/09 A2916 RMK AO1 SLP881
SPECI CYNL 251529Z AUTO 25005KT 1 1/4SM VV004 09/09 A2916 RMK AO1 SLP880
SPECI CYNL 251517Z AUTO 00000KT 1 1/2SM VV003 09/09 A2916 RMK AO1 SLP880
SPECI CYNL 251505Z AUTO 00000KT 1SM VV003 09/09 A2916 RMK AO1 SLP881
SPECI CYNL 251503Z AUTO 00000KT 3/4SM VV003 09/09 A2916 RMK AO1 SLP880
METAR CYNL 251500Z AUTO 00000KT 1/2SM VV003 09/09 A2916 RMK AO1 SLP880
SPECI CYNL 251458Z AUTO 00000KT 1/2SM VV003 09/09 A2916 RMK AO1 SLP880
SPECI CYNL 251419Z AUTO 00000KT 1/4SM VV002 09/09 A2915 RMK AO1 SLP877
SPECI CYNL 251417Z AUTO 00000KT 1/4SM VV003 09/09 A2915 RMK AO1 SLP877
SPECI CYNL 251405Z AUTO 00000KT 1/8SM VV003 08/08 A2914 RMK AO1 SLP876
METAR CYNL 251400Z AUTO 00000KT 1/8SM VV002 08/08 A2914 RMK AO1 SLP876
METAR CYNL 251300Z AUTO 00000KT 0SM VV001 08/08 A2913 RMK AO1 SLP872
METAR CYNL 251200Z AUTO 06003KT 1/8SM VV001 08/08 A2912 RMK AO1 SLP869
METAR CYNL 251100Z AUTO 10004KT 1/8SM VV001 08/08 A2913 RMK AO1 SLP871
SPECI CYNL 251024Z AUTO 10004KT 1/8SM VV002 08/08 A2912 RMK AO1 SLP870
METAR CYNL 251000Z AUTO 10005KT 3/8SM VV002 08/08 A2912 RMK AO1 SLP869
METAR CYNL 250900Z AUTO 10005KT 1/4SM VV002 08/08 A2913 RMK AO1 SLP871
SPECI CYNL 250848Z AUTO 09005KT 5/8SM VV002 08/08 A2913 RMK AO1 SLP871
SPECI CYNL 250846Z AUTO 09005KT 3/4SM VV002 08/08 A2913 RMK AO1 SLP871
SPECI CYNL 250833Z AUTO 09005KT 1SM VV002 08/08 A2912 RMK AO1 SLP871
METAR CYNL 250800Z AUTO 10007KT 1SM OVC003 08/08 A2913 RMK AO1 SLP871
SPECI CYNL 250749Z AUTO 10006KT 1 1/4SM OVC003 08/08 A2913 RMK AO1 SLP872
SPECI CYNL 250728Z AUTO 11006KT 1 3/4SM OVC003 08/08 A2913 RMK AO1 SLP872
SPECI CYNL 250718Z AUTO 10007KT 2 1/2SM BKN003 OVC005 08/08 A2913 RMK AO1 SLP873
METAR CYNL 250700Z AUTO 10006KT 5SM BKN003 OVC005 08/08 A2914 RMK AO1 SLP874
SPECI CYNL 250646Z AUTO 11006KT 3SM VV004 08/08 A2914 RMK AO1 PRESFR SLP875
SPECI CYNL 250642Z AUTO 11007KT 2SM VV004 08/08 A2914 RMK AO1 PRESFR SLP875
SPECI CYNL 250637Z AUTO 11006KT 1 3/4SM VV004 08/08 A2914 RMK AO1 PRESFR SLP875
SPECI CYNL 250633Z AUTO 11007KT 2SM VV003 08/08 A2914 RMK AO1 PRESFR SLP876
SPECI CYNL 250631Z AUTO 11006KT 1 1/2SM VV003 08/08 A2914 RMK AO1 PRESFR SLP876
METAR CYNL 250600Z AUTO 11007KT 1SM VV004 08/08 A2915 RMK AO1 PRESFR SLP879
SPECI CYNL 250545Z AUTO 11008KT 1 1/4SM OVC004 08/08 A2915 RMK AO1 PRESFR SLP880
SPECI CYNL 250536Z AUTO 12006KT 1 3/4SM OVC004 08/08 A2916 RMK AO1 PRESFR SLP882
SPECI CYNL 250533Z AUTO 11006KT 1 3/4SM OVC005 08/08 A2916 RMK AO1 PRESFR SLP882
SPECI CYNL 250532Z AUTO 12006KT 2SM OVC005 08/08 A2916 RMK AO1 PRESFR SLP882
SPECI CYNL 250525Z AUTO 11008KT 1 1/2SM VV005 08/08 A2916 RMK AO1 PRESFR SLP883
SPECI CYNL 250504Z AUTO 12007KT 1SM VV005 08/08 A2917 RMK AO1 PRESFR SLP885
SPECI CYNL 250503Z AUTO 12007KT 1SM VV004 08/08 A2917 RMK AO1 PRESFR SLP885
METAR CYNL 250500Z AUTO 12007KT 1 1/4SM OVC005 08/08 A2917 RMK AO1 PRESFR SLP885
SPECI CYNL 250459Z AUTO 12006KT 1 1/2SM OVC005 08/08 A2917 RMK AO1 PRESFR SLP885
SPECI CYNL 250457Z AUTO 12007KT 2 1/2SM OVC005 08/08 A2917 RMK AO1 PRESFR SLP885
SPECI CYNL 250455Z AUTO 12007KT 3SM OVC005 08/08 A2917 RMK AO1 PRESFR SLP885
SPECI CYNL 250451Z AUTO 13008KT 2 1/2SM OVC005 08/08 A2917 RMK AO1 PRESFR SLP886
METAR CYNL 250400Z AUTO 14010KT 9SM OVC005 08/08 A2919 RMK AO1 PRESFR SLP893
METAR CYNL 250300Z AUTO 14011G16KT 7SM OVC006 08/08 A2922 RMK AO1 PRESFR SLP903
SPECI CYNL 250217Z AUTO 13010G16KT 3SM BKN006 OVC008 08/07 A2924 RMK AO1 PRESFR SLP910
SPECI CYNL 250206Z AUTO 14012G18KT 2SM BKN006 BKN008 OVC011 08/07 A2924 RMK AO1 PRESFR SLP912
SPECI CYNL 250203Z AUTO 14009G17KT 1 3/4SM BKN006 BKN008 OVC011 08/07 A2925 RMK AO1 PRESFR SLP912
SPECI CYNL 250201Z AUTO 13011G17KT 2SM BKN006 BKN008 OVC011 08/07 A2924 RMK AO1 PRESFR SLP911
METAR CYNL 250200Z AUTO 13011G17KT 1 3/4SM BKN006 OVC008 08/07 A2924 RMK AO1 PRESFR SLP911
SPECI CYNL 250158Z AUTO 13013KT 1 3/4SM OVC006 08/07 A2925 RMK AO1 PRESFR SLP913
SPECI CYNL 250150Z AUTO 14012KT 2SM OVC007 08/07 A2925 RMK AO1 SLP916
SPECI CYNL 250146Z AUTO 14009KT 1 3/4SM BKN007 OVC009 08/07 A2926 RMK AO1 SLP917
SPECI CYNL 250122Z AUTO 13010G18KT 2SM BKN007 OVC010 08/07 A2927 RMK AO1 SLP922
SPECI CYNL 250116Z AUTO 12012G19KT 1 1/2SM VV008 07/07 A2927 RMK AO1 SLP922
METAR CYNL 250100Z AUTO 13012G20KT 1 1/4SM BKN006 OVC008 07/07 A2928 RMK AO1 SLP925
SPECI CYNL 250059Z AUTO 14012G20KT 1 1/4SM BKN006 OVC008 07/07 A2928 RMK AO1 SLP925
SPECI CYNL 250055Z AUTO 13011G20KT 1 3/4SM BKN006 OVC008 07/07 A2928 RMK AO1 SLP926
SPECI CYNL 250048Z AUTO 14014G19KT 2 1/2SM OVC006 07/07 A2929 RMK AO1 SLP928
METAR CYNL 250000Z AUTO 13014G22KT 5SM OVC006 07/07 A2930 RMK AO1 SLP932
METAR CYNL 242300Z AUTO 13016G21KT 9SM OVC007 07/06 A2932 RMK AO1 PRESFR SLP938
METAR CYNL 242200Z AUTO 14010G20KT 6SM OVC006 07/06 A2935 RMK AO1 SLP948
METAR CYNL 242100Z AUTO 12013G24KT 9SM BKN007 BKN008 OVC010 07/06 A2936 RMK AO1 PRESFR SLP952
METAR CYNL 242000Z AUTO 11014G22KT 5SM BKN007 OVC010 07/06 A2940 RMK AO1 PRESFR SLP969
SPECI CYNL 241922Z AUTO 11012G23KT 3SM BKN009 OVC013 07/06 A2943 RMK AO1 PRESFR SLP979
SPECI CYNL 241918Z AUTO 11013G20KT 2 1/2SM BKN009 OVC013 07/06 A2943 RMK AO1 PRESFR SLP979
SPECI CYNL 241915Z AUTO 11014G20KT 2 1/2SM FEW008 SCT009 OVC013 07/06 A2944 RMK AO1 PRESFR SLP980
SPECI CYNL 241913Z AUTO 11013G20KT 3SM SCT009 OVC013 07/06 A2944 RMK AO1 PRESFR SLP980
SPECI CYNL 241912Z AUTO 11012G20KT 3SM SCT010 BKN013 OVC016 07/06 A2944 RMK AO1 PRESFR SLP981
SPECI CYNL 241911Z AUTO 11015KT 2 1/2SM SCT010 BKN013 OVC016 07/06 A2944 RMK AO1 PRESFR SLP981
SPECI CYNL 241904Z AUTO 11014G20KT 6SM FEW009 BKN012 OVC016 07/06 A2945 RMK AO1 PRESFR SLP983
METAR CYNL 241900Z AUTO 11015KT 4SM SCT011 BKN014 BKN016 07/06 A2945 RMK AO1 PRESFR SLP983
SPECI CYNL 241845Z AUTO 11012G19KT 7SM BKN013 07/06 A2946 RMK AO1 PRESFR SLP988
SPECI CYNL 241843Z AUTO 12011G19KT 8SM SCT013 BKN016 07/06 A2947 RMK AO1 PRESFR SLP989
SPECI CYNL 241841Z AUTO 11012G20KT 7SM FEW011 SCT014 BKN025 07/06 A2947 RMK AO1 PRESFR SLP989
SPECI CYNL 241840Z AUTO 11013G20KT 7SM FEW011 SCT014 BKN024 07/05 A2947 RMK AO1 PRESFR SLP989
METAR CYNL 241800Z AUTO 13015G27KT 9SM FEW042 07/05 A2950 RMK AO1 PRESFR SLP000
METAR CYNL 241700Z AUTO 11015G21KT 9SM BKN050 08/04 A2954 RMK AO1 PRESFR SLP012
METAR CYNL 241600Z AUTO 12013G20KT 9SM CLR 08/05 A2959 RMK AO1 PRESFR SLP029
METAR CYNL 241500Z AUTO 13011G19KT 9SM FEW037 BKN068 08/04 A2962 RMK AO1 PRESFR SLP039
METAR CYNL 241400Z AUTO 13009G15KT 9SM FEW084 07/03 A2965 RMK AO1 PRESFR SLP051
METAR CYNL 241300Z AUTO 13009KT 9SM FEW060 BKN080 07/04 A2969 RMK AO1 PRESFR SLP064
METAR CYNL 241200Z AUTO 13009KT 9SM FEW078 06/04 A2973 RMK AO1 PRESFR SLP075
METAR CYNL 241100Z AUTO 14009KT 9SM FEW043 07/04 A2975 RMK AO1 PRESFR SLP080
METAR CYNL 241000Z AUTO 15009KT 9SM BKN049 08/04 A2978 RMK AO1 PRESFR SLP086
METAR CYNL 240900Z AUTO 15007KT 9SM BKN046 08/04 A2980 RMK AO1 SLP095
METAR CYNL 240800Z AUTO 14006KT 9SM FEW043 07/03 A2981 RMK AO1 PRESFR SLP098
METAR CYNL 240700Z AUTO 15009G16KT 9SM CLR 08/03 A2985 RMK AO1 PRESFR SLP113
METAR CYNL 240600Z AUTO 15006KT 9SM CLR 07/03 A2989 RMK AO1 PRESFR SLP127
METAR CYNL 240500Z AUTO 17006KT 9SM CLR 08/03 A2992 RMK AO1 SLP135
METAR CYNL 240400Z AUTO 17007KT 9SM CLR 09/02 A2993 RMK AO1 SLP143
METAR CYNL 240300Z AUTO 16006KT 9SM CLR 09/02 A2993 RMK AO1 SLP146
METAR CYNL 240200Z AUTO 15005KT 9SM CLR 09/01 A2995 RMK AO1 SLP155
METAR CYNL 240100Z AUTO 16003KT 9SM CLR 11/02 A2996 RMK AO1 SLP161
METAR CYNL 240000Z AUTO 17008KT 9SM CLR 14/01 A2998 RMK AO1 SLP164
METAR CYNL 232300Z AUTO 21006KT 9SM CLR 15/01 A2999 RMK AO1 SLP168
METAR CYNL 232200Z AUTO 21005KT 9SM CLR 16/02 A3000 RMK AO1 PRESFR SLP172
METAR CYNL 232100Z AUTO 18009KT 9SM CLR 15/02 A3002 RMK AO1 SLP178
METAR CYNL 232000Z AUTO 23007KT 9SM CLR 15/02 A3004 RMK AO1 SLP183
METAR CYNL 231900Z AUTO 20007KT 9SM CLR 14/02 A3005 RMK AO1 SLP188
METAR CYNL 231800Z AUTO 23008KT 9SM CLR 13/04 A3006 RMK AO1 SLP192
METAR CYNL 231700Z AUTO 19006KT 9SM CLR 11/05 A3007 RMK AO1 SLP197
METAR CYNL 231600Z AUTO 18004KT 9SM CLR 09/05 A3009 RMK AO1 SLP203
METAR CYNL 231500Z AUTO 20002KT 9SM CLR 06/05 A3009 RMK AO1 SLP208
SPECI CYNL 231406Z AUTO 23002KT 3SM CLR 02/02 A3010 RMK AO1 SLP215
SPECI CYNL 231405Z AUTO 23002KT 2SM CLR 02/02 A3010 RMK AO1 SLP215
SPECI CYNL 231404Z AUTO 22002KT 1 1/4SM CLR 02/02 A3010 RMK AO1 SLP215
SPECI CYNL 231402Z AUTO 23003KT 1/4SM CLR 01/01 A3010 RMK AO1 SLP215
METAR CYNL 231400Z AUTO 22002KT 1/8SM CLR 01/01 A3010 RMK AO1 SLP215
METAR CYNL 231300Z AUTO 20002KT 1/8SM FEW001 M01/M01 A3010 RMK AO1 SLP216
SPECI CYNL 231246Z AUTO 00000KT 1/8SM FEW001 M01/M01 A3010 RMK AO1 SLP213
SPECI CYNL 231239Z AUTO 00000KT 1/4SM SCT001 M01/M01 A3010 RMK AO1 SLP213
SPECI CYNL 231236Z AUTO 00000KT 1/8SM SCT001 M01/M01 A3010 RMK AO1 SLP213
SPECI CYNL 231235Z AUTO 00000KT 1/4SM SCT001 M01/M01 A3010 RMK AO1 SLP213
SPECI CYNL 231232Z AUTO 00000KT 1/4SM VV001 M01/M01 A3010 RMK AO1 SLP214
SPECI CYNL 231228Z AUTO 00000KT 1/8SM VV001 M01/M01 A3010 RMK AO1 SLP214
SPECI CYNL 231224Z AUTO 00000KT 1/8SM FEW001 M01/M01 A3010 RMK AO1 SLP213
METAR CYNL 231200Z AUTO 00000KT 0SM CLR M01/M01 A3010 RMK AO1 SLP214
SPECI CYNL 231121Z AUTO 00000KT 1/8SM CLR M01/M01 A3010 RMK AO1 SLP213
SPECI CYNL 231117Z AUTO 00000KT 1/4SM CLR M01/M01 A3010 RMK AO1 SLP213
METAR CYNL 231100Z AUTO 00000KT 1/8SM CLR M01/M01 A3010 RMK AO1 SLP213
METAR CYNL 231000Z AUTO 21003KT 0SM CLR 01/01 A3010 RMK AO1 SLP211
SPECI CYNL 230908Z AUTO 00000KT 1/8SM CLR 00/00 A3010 RMK AO1 SLP211
SPECI CYNL 230906Z AUTO 00000KT 5/8SM CLR 00/M00 A3010 RMK AO1 SLP211
SPECI CYNL 230905Z AUTO 00000KT 1SM CLR 00/M00 A3010 RMK AO1 SLP211
SPECI CYNL 230901Z AUTO 00000KT 5/8SM CLR 00/M00 A3010 RMK AO1 SLP211
METAR CYNL 230900Z AUTO 00000KT 3/4SM CLR 00/M00 A3010 RMK AO1 SLP211
SPECI CYNL 230857Z AUTO 00000KT 1/4SM CLR 00/M00 A3010 RMK AO1 SLP210
SPECI CYNL 230849Z AUTO 00000KT 1/8SM CLR 00/M00 A3010 RMK AO1 SLP210
SPECI CYNL 230848Z AUTO 00000KT 3/8SM CLR 00/M00 A3010 RMK AO1 SLP210
METAR CYNL 230800Z AUTO 00000KT 9SM CLR 01/00 A3009 RMK AO1 SLP207
METAR CYNL 230700Z AUTO 00000KT 9SM CLR 01/01 A3010 RMK AO1 SLP209
METAR CYNL 230600Z AUTO 00000KT 9SM CLR 02/02 A3010 RMK AO1 SLP208
METAR CYNL 230500Z AUTO 24004KT 180V290 9SM FEW025 BKN035 04/04 A3009 RMK AO1 SLP204
METAR CYNL 230400Z AUTO 00000KT 9SM BKN035 04/03 A3008 RMK AO1 SLP202
METAR CYNL 230300Z AUTO 00000KT 9SM CLR 04/03 A3008 RMK AO1 SLP201
METAR CYNL 230200Z AUTO 00000KT 9SM FEW033 06/04 A3007 RMK AO1 SLP197
METAR CYNL 230100Z AUTO 00000KT 9SM FEW030 BKN043 09/04 A3007 RMK AO1 PRESRR SLP193
METAR CYNL 230000Z AUTO 29004KT 9SM FEW034 SCT044 10/04 A3005 RMK AO1 SLP185
METAR CYNL 222300Z AUTO 33006KT 9SM SCT038 10/03 A3004 RMK AO1 SLP182
METAR CYNL 222200Z AUTO 33006KT 9SM BKN032 10/03 A3003 RMK AO1 SLP178
SPECI CYNL 222107Z AUTO 32006G15KT 9SM FEW025 BKN032 10/04 A3002 RMK AO1 SLP174
SPECI CYNL 222106Z AUTO 31009G15KT 9SM BKN029 10/04 A3002 RMK AO1 SLP174
SPECI CYNL 222104Z AUTO 33009G15KT 9SM SCT028 BKN034 10/04 A3002 RMK AO1 SLP174
METAR CYNL 222100Z AUTO 34010KT 9SM BKN027 11/04 A3001 RMK AO1 SLP173
SPECI CYNL 222059Z AUTO 33009KT 9SM BKN025 11/04 A3001 RMK AO1 SLP172
SPECI CYNL 222056Z AUTO 34010KT 9SM SCT025 BKN030 10/04 A3002 RMK AO1 SLP172
SPECI CYNL 222055Z AUTO 33010KT 9SM BKN026 10/04 A3002 RMK AO1 SLP172
SPECI CYNL 222053Z AUTO 33009KT 9SM SCT025 BKN031 10/04 A3002 RMK AO1 SLP172
SPECI CYNL 222043Z AUTO 31009G15KT 9SM BKN026 11/04 A3001 RMK AO1 SLP170
SPECI CYNL 222038Z AUTO 33008G15KT 9SM SCT026 BKN032 11/04 A3001 RMK AO1 SLP169
SPECI CYNL 222037Z AUTO 33008G15KT 9SM BKN027 11/04 A3001 RMK AO1 SLP169
SPECI CYNL 222036Z AUTO 34007G15KT 9SM SCT027 BKN032 11/04 A3001 RMK AO1 SLP169
SPECI CYNL 222019Z AUTO 32006KT 9SM BKN029 10/04 A3001 RMK AO1 SLP171
SPECI CYNL 222017Z AUTO 32005KT 9SM FEW023 BKN030 10/04 A3001 RMK AO1 SLP171
SPECI CYNL 222012Z AUTO 33006KT 9SM BKN028 10/04 A3001 RMK AO1 SLP171
SPECI CYNL 222010Z AUTO 33007KT 9SM FEW023 BKN030 10/04 A3001 RMK AO1 SLP171
SPECI CYNL 222006Z AUTO 33006KT 9SM BKN029 10/04 A3001 RMK AO1 SLP170
METAR CYNL 222000Z AUTO 32009KT 9SM BKN030 10/04 A3000 RMK AO1 SLP169
SPECI CYNL 221941Z AUTO 30008G17KT 9SM SCT027 10/03 A3000 RMK AO1 SLP167
SPECI CYNL 221919Z AUTO 31004KT 9SM BKN026 10/04 A3000 RMK AO1 SLP166
SPECI CYNL 221918Z AUTO 31005KT 9SM SCT026 BKN032 09/04 A3000 RMK AO1 SLP166
SPECI CYNL 221909Z AUTO 30009KT 9SM BKN029 10/04 A2999 RMK AO1 SLP164
SPECI CYNL 221905Z AUTO 32008KT 9SM BKN030 10/03 A2999 RMK AO1 SLP165
METAR CYNL 221900Z AUTO 32008KT 9SM BKN029 09/03 A2999 RMK AO1 WSHFT (18)47 SLP165
SPECI CYNL 221850Z AUTO 33007G15KT 9SM BKN028 10/03 A2999 RMK AO1 WSHFT (18)47 SLP164
SPECI CYNL 221847Z AUTO 35010G20KT 9SM SCT029 10/04 A2999 RMK AO1 WSHFT (18)47 SLP163
METAR CYNL 221800Z AUTO 32008G15KT 9SM SCT024 09/03 A2998 RMK AO1 SLP161
SPECI CYNL 221750Z AUTO 31010G16KT 9SM SCT023 BKN200 09/03 A2998 RMK AO1 PRESRR SLP159
SPECI CYNL 221746Z AUTO 33010G16KT 9SM BKN023 10/03 A2998 RMK AO1 PRESRR SLP158
SPECI CYNL 221734Z AUTO 32010KT 9SM SCT023 09/03 A2997 RMK AO1 PRESRR SLP157
METAR CYNL 221700Z AUTO 31010G17KT 9SM BKN018 08/04 A2997 RMK AO1 PRESRR SLP157
SPECI CYNL 221645Z AUTO 31009G16KT 9SM BKN017 08/04 A2996 RMK AO1 PRESRR SLP155
SPECI CYNL 221639Z AUTO 31010G17KT 9SM FEW018 BKN025 08/04 A2996 RMK AO1 PRESRR SLP154
SPECI CYNL 221630Z AUTO 32011KT 9SM FEW017 SCT026 08/04 A2996 RMK AO1 PRESRR SLP153
SPECI CYNL 221628Z AUTO 32009KT 9SM FEW014 BKN026 08/04 A2996 RMK AO1 PRESRR SLP153
METAR CYNL 221600Z AUTO 31010G21KT 9SM SCT018 08/04 A2995 RMK AO1 PRESRR SLP149
SPECI CYNL 221556Z AUTO 31012G19KT 9SM SCT018 08/04 A2994 RMK AO1 PRESRR SLP149
SPECI CYNL 221552Z AUTO 33010KT 9SM SCT018 BKN025 08/04 A2994 RMK AO1 PRESRR SLP149
SPECI CYNL 221551Z AUTO 33010G18KT 9SM SCT018 BKN022 08/04 A2994 RMK AO1 PRESRR SLP149
SPECI CYNL 221546Z AUTO 31010G18KT 9SM SCT019 08/04 A2994 RMK AO1 PRESRR SLP149
SPECI CYNL 221524Z AUTO 30009G18KT 9SM FEW012 BKN019 07/04 A2993 RMK AO1 PRESRR SLP147
SPECI CYNL 221517Z AUTO 31011G18KT 9SM FEW012 SCT018 BKN026 07/04 A2993 RMK AO1 PRESRR SLP146
SPECI CYNL 221511Z AUTO 30013KT 9SM FEW012 SCT017 07/04 A2993 RMK AO1 PRESRR SLP145
SPECI CYNL 221510Z AUTO 30012G18KT 9SM SCT012 BKN027 07/05 A2993 RMK AO1 PRESRR SLP144
METAR CYNL 221500Z AUTO 32006G16KT 9SM SCT018 08/05 A2992 RMK AO1 PRESRR SLP142
SPECI CYNL 221413Z AUTO 29007G17KT 9SM FEW013 SCT017 07/05 A2991 RMK AO1 SLP137
METAR CYNL 221400Z AUTO 29009KT 9SM SCT012 BKN024 07/05 A2990 RMK AO1 SLP135
SPECI CYNL 221357Z AUTO 29008KT 9SM SCT012 BKN024 08/05 A2990 RMK AO1 PRESRR SLP134
METAR CYNL 221300Z AUTO 29007KT 07/06 A2988 RMK AO1 PRESRR SLP128
SPECI CYNL 221206Z AUTO 29009KT 9SM 07/06 A2986 RMK AO1 PRESRR SLP117
METAR CYNL 221200Z AUTO 29007KT 9SM BKN011 BKN016 07/06 A2985 RMK AO1 PRESRR SLP116
SPECI CYNL 221143Z AUTO 29008KT 9SM BKN010 07/06 A2985 RMK AO1 PRESRR SLP113
SPECI CYNL 221142Z AUTO 30008KT 9SM FEW009 SCT011 BKN015 07/06 A2985 RMK AO1 PRESRR SLP113
SPECI CYNL 221126Z AUTO 30008KT 9SM SCT009 BKN011 BKN013 07/06 A2984 RMK AO1 PRESRR SLP111
SPECI CYNL 221125Z AUTO 30007KT 9SM BKN010 07/06 A2984 RMK AO1 PRESRR SLP110
SPECI CYNL 221124Z AUTO 30007KT 9SM BKN009 BKN012 07/06 A2984 RMK AO1 PRESRR SLP110
METAR CYNL 221100Z AUTO 30008G16KT 9SM SCT009 BKN012 BKN026 07/06 A2983 RMK AO1 PRESRR SLP107
SPECI CYNL 221055Z AUTO 30009KT 9SM SCT009 BKN012 07/06 A2983 RMK AO1 SLP106
SPECI CYNL 221043Z AUTO 30007G15KT 9SM FEW006 SCT008 BKN020 07/06 A2982 RMK AO1 SLP104
SPECI CYNL 221039Z AUTO 31011G18KT 3SM VV018 07/06 A2982 RMK AO1 SLP104
SPECI CYNL 221034Z AUTO 30009G18KT 3SM SCT006 BKN009 OVC012 07/07 A2982 RMK AO1 SLP103
SPECI CYNL 221032Z AUTO 31010G18KT 3SM VV010 07/07 A2982 RMK AO1 SLP103
SPECI CYNL 221031Z AUTO 31013G18KT 2SM BKN006 BKN010 OVC012 07/07 A2982 RMK AO1 SLP103
SPECI CYNL 221030Z AUTO 30014KT 1 3/4SM BKN006 BKN010 OVC013 07/07 A2982 RMK AO1 SLP103
SPECI CYNL 221022Z AUTO 29010G16KT 1 1/4SM BKN006 OVC010 07/07 A2981 RMK AO1 SLP101
SPECI CYNL 221019Z AUTO 29009G16KT 1 3/4SM BKN006 OVC010 07/07 A2981 RMK AO1 SLP100
SPECI CYNL 221016Z AUTO 29011G16KT 2 1/2SM BKN006 BKN009 OVC010 07/07 A2981 RMK AO1 SLP100
SPECI CYNL 221014Z AUTO 28009G16KT 3SM BKN006 OVC009 07/07 A2981 RMK AO1 SLP100
SPECI CYNL 221009Z AUTO 29011G19KT 2SM BKN006 OVC010 07/07 A2981 RMK AO1 SLP099
SPECI CYNL 221008Z AUTO 29010G19KT 1 3/4SM BKN006 OVC010 07/07 A2981 RMK AO1 SLP099
METAR CYNL 221000Z AUTO 29011G18KT 1 1/4SM BKN006 OVC010 08/07 A2981 RMK AO1 SLP098
SPECI CYNL 220955Z AUTO 29010G16KT 1 1/4SM BKN006 OVC009 08/07 A2980 RMK AO1 SLP097
SPECI CYNL 220952Z AUTO 29011G16KT 1 1/2SM SCT006 BKN009 OVC010 08/07 A2980 RMK AO1 SLP096
SPECI CYNL 220949Z AUTO 28010G16KT 1 1/4SM SCT006 BKN009 BKN011 08/07 A2980 RMK AO1 SLP096
SPECI CYNL 220948Z AUTO 28008G16KT 1 1/2SM SCT006 BKN009 BKN011 08/07 A2980 RMK AO1 SLP096
SPECI CYNL 220944Z AUTO 28011KT 1 1/4SM SCT006 BKN008 BKN011 08/07 A2980 RMK AO1 SLP095
SPECI CYNL 220943Z AUTO 28010KT 1 1/2SM SCT006 BKN011 OVC014 08/07 A2980 RMK AO1 SLP095
SPECI CYNL 220941Z AUTO 28008KT 2 1/2SM SCT006 BKN008 OVC013 08/07 A2980 RMK AO1 SLP095
SPECI CYNL 220931Z AUTO 29011G18KT 2 1/2SM SCT009 OVC013 08/07 A2980 RMK AO1 SLP094
SPECI CYNL 220920Z AUTO 28011G16KT 9SM SCT009 OVC013 08/07 A2979 RMK AO1 SLP092
SPECI CYNL 220914Z AUTO 28009KT 9SM BKN009 OVC013 08/07 A2979 RMK AO1 SLP092
SPECI CYNL 220904Z AUTO 28010G18KT 9SM SCT009 OVC013 08/07 A2979 RMK AO1 SLP091
METAR CYNL 220900Z AUTO 28008G18KT 9SM BKN009 BKN012 OVC015 08/07 A2979 RMK AO1 SLP091
SPECI CYNL 220858Z AUTO 28008G18KT 9SM BKN009 BKN012 OVC015 08/07 A2979 RMK AO1 SLP093
SPECI CYNL 220848Z AUTO 29007KT 9SM FEW009 BKN012 OVC021 08/07 A2979 RMK AO1 SLP092
SPECI CYNL 220844Z AUTO 29010KT 9SM FEW009 SCT011 BKN015 08/07 A2979 RMK AO1 SLP092
SPECI CYNL 220843Z AUTO 28009KT 9SM SCT009 BKN014 OVC022 08/07 A2979 RMK AO1 SLP092
SPECI CYNL 220839Z AUTO 28009KT 9SM SCT009 BKN015 OVC022 08/07 A2979 RMK AO1 SLP092
SPECI CYNL 220838Z AUTO 28009KT 9SM SCT009 BKN011 BKN022 08/07 A2978 RMK AO1 SLP091
SPECI CYNL 220824Z AUTO 28008KT 9SM SCT007 OVC021 08/08 A2978 RMK AO1 SLP089
SPECI CYNL 220819Z AUTO 28009KT 9SM SCT007 BKN009 OVC018 08/08 A2978 RMK AO1 SLP089
SPECI CYNL 220818Z AUTO 28007KT 9SM SCT007 BKN010 OVC022 09/08 A2978 RMK AO1 SLP089
METAR CYNL 220800Z AUTO 30008G15KT 9SM BKN007 OVC010 09/08 A2978 RMK AO1 SLP088
SPECI CYNL 220755Z AUTO 28010G16KT 3SM BKN007 OVC010 09/08 A2978 RMK AO1 SLP087
SPECI CYNL 220753Z AUTO 28009G16KT 2SM BKN007 OVC012 09/08 A2977 RMK AO1 SLP086
SPECI CYNL 220752Z AUTO 27009G16KT 1 1/2SM BKN007 OVC012 09/08 A2977 RMK AO1 SLP086
SPECI CYNL 220751Z AUTO 28008G16KT 1 1/4SM BKN007 BKN012 OVC014 09/08 A2977 RMK AO1 SLP086
SPECI CYNL 220750Z AUTO 28009G16KT 1 1/4SM SCT007 BKN010 BKN012 09/08 A2977 RMK AO1 SLP086
SPECI CYNL 220748Z AUTO 28008KT 1 3/4SM SCT007 BKN010 BKN012 09/08 A2977 RMK AO1 SLP086
SPECI CYNL 220745Z AUTO 28008KT 2SM SCT007 BKN010 BKN014 09/08 A2977 RMK AO1 SLP086
SPECI CYNL 220744Z AUTO 27007KT 1 3/4SM SCT007 BKN010 BKN014 09/08 A2977 RMK AO1 SLP086
SPECI CYNL 220743Z AUTO 28007KT 2SM SCT007 BKN010 BKN014 09/08 A2977 RMK AO1 SLP086
SPECI CYNL 220742Z AUTO 28008KT 3SM SCT008 BKN010 BKN014 09/08 A2977 RMK AO1 SLP086
SPECI CYNL 220741Z AUTO 27008KT 6SM BKN009 BKN015 09/08 A2977 RMK AO1 SLP085
SPECI CYNL 220737Z AUTO 28010KT 9SM SCT009 BKN014 09/08 A2977 RMK AO1 SLP085
SPECI CYNL 220734Z AUTO 28008KT 9SM FEW009 SCT011 BKN015 09/08 A2977 RMK AO1 SLP084
SPECI CYNL 220733Z AUTO 27007KT 9SM FEW009 BKN014 09/08 A2977 RMK AO1 SLP084
SPECI CYNL 220729Z AUTO 27007KT 9SM BKN013 09/08 A2977 RMK AO1 SLP084
SPECI CYNL 220726Z AUTO 27008KT 9SM FEW011 SCT015 BKN029 09/08 A2977 RMK AO1 SLP083
METAR CYNL 220700Z AUTO 27009KT 9SM FEW014 SCT024 09/08 A2976 RMK AO1 SLP082
SPECI CYNL 220657Z AUTO 28008KT 9SM FEW014 SCT020 09/08 A2976 RMK AO1 SLP081
SPECI CYNL 220646Z AUTO 28009G15KT 9SM FEW009 SCT014 BKN020 09/08 A2976 RMK AO1 SLP080
SPECI CYNL 220637Z AUTO 27009KT 9SM FEW009 BKN014 10/08 A2976 RMK AO1 SLP078
SPECI CYNL 220626Z AUTO 27007KT 9SM FEW009 BKN064 10/09 A2975 RMK AO1 SLP078
METAR CYNL 220600Z AUTO 27007KT 9SM BKN060 10/09 A2975 RMK AO1 SLP075
METAR CYNL 220500Z AUTO 27005KT 9SM BKN078 10/09 A2974 RMK AO1 SLP074
METAR CYNL 220400Z AUTO 21005KT 9SM FEW052 SCT078 10/09 A2974 RMK AO1 SLP073
METAR CYNL 220300Z AUTO 24004KT 9SM SCT070 10/09 A2974 RMK AO1 SLP077
METAR CYNL 220200Z AUTO 00000KT 9SM FEW056 SCT078 11/09 A2974 RMK AO1 SLP075
METAR CYNL 220100Z AUTO 00000KT 8SM FEW028 SCT048 12/09 A2974 RMK AO1 SLP075
SPECI CYNL 220034Z AUTO 00000KT 4SM VV037 12/09 A2974 RMK AO1 SLP076
SPECI CYNL 220033Z AUTO 00000KT 2 1/2SM VV036 12/09 A2974 RMK AO1 SLP076
SPECI CYNL 220032Z AUTO 00000KT 1SM VV035 12/09 A2974 RMK AO1 SLP077
SPECI CYNL 220031Z AUTO 00000KT 5/8SM VV035 12/09 A2974 RMK AO1 SLP077
SPECI CYNL 220030Z AUTO 29002KT 3/4SM VV036 12/09 A2974 RMK AO1 SLP078
SPECI CYNL 220029Z AUTO 28003KT 1 1/2SM VV037 12/09 A2975 RMK AO1 SLP078
METAR CYNL 220000Z AUTO 00000KT 9SM FEW084 13/08 A2974 RMK AO1 SLP073
SPECI CYNL 212337Z AUTO 19003KT 3SM FEW092 14/08 A2973 RMK AO1 SLP072
SPECI CYNL 212336Z AUTO 19003KT 2SM FEW094 14/08 A2973 RMK AO1 SLP072
SPECI CYNL 212335Z AUTO 19003KT 1 3/4SM FEW094 14/08 A2973 RMK AO1 SLP072
SPECI CYNL 212333Z AUTO 19002KT 2 1/2SM FEW094 14/08 A2973 RMK AO1 SLP072
METAR CYNL 212300Z AUTO 21004KT 9SM CLR 14/07 A2973 RMK AO1 SLP071
METAR CYNL 212200Z AUTO VRB02KT 9SM FEW022 15/08 A2973 RMK AO1 SLP070
SPECI CYNL 212125Z AUTO 33003KT 9SM SCT019 BKN220 13/08 A2973 RMK AO1 SLP072
METAR CYNL 212100Z AUTO 31004KT 9SM BKN017 OVC021 13/08 A2974 RMK AO1 SLP073
METAR CYNL 212000Z AUTO 30009KT 9SM BKN019 13/09 A2973 RMK AO1 SLP070
SPECI CYNL 211933Z AUTO 29007KT 9SM BKN017 14/09 A2973 RMK AO1 SLP069
SPECI CYNL 211926Z AUTO 32005KT 9SM SCT017 14/09 A2973 RMK AO1 SLP068
METAR CYNL 211900Z AUTO 27006KT 9SM BKN016 14/09 A2972 RMK AO1 SLP067
SPECI CYNL 211857Z AUTO 28006KT 9SM BKN016 14/09 A2972 RMK AO1 SLP067
METAR CYNL 211800Z AUTO 28006KT 9SM FEW034 12/08 A2973 RMK AO1 SLP070
METAR CYNL 211700Z AUTO 30006KT 9SM CLR 13/08 A2972 RMK AO1 SLP067
METAR CYNL 211600Z AUTO 32005KT 9SM FEW006 11/08 A2971 RMK AO1 SLP065
SPECI CYNL 211548Z AUTO 32006KT 9SM SCT006 11/08 A2971 RMK AO1 SLP064
SPECI CYNL 211527Z AUTO 32006KT 9SM BKN006 10/08 A2970 RMK AO1 SLP062
SPECI CYNL 211526Z AUTO 32006KT 9SM SCT006 BKN029 10/08 A2970 RMK AO1 SLP062
SPECI CYNL 211520Z AUTO 31008KT 9SM BKN006 BKN029 10/08 A2970 RMK AO1 SLP063
SPECI CYNL 211508Z AUTO 31007KT 9SM FEW006 BKN029 10/08 A2970 RMK AO1 SLP061
SPECI CYNL 211505Z AUTO 31006KT 9SM FEW008 SCT028 10/08 A2970 RMK AO1 SLP061
SPECI CYNL 211504Z AUTO 30007KT 9SM FEW008 BKN028 10/08 A2970 RMK AO1 SLP061
METAR CYNL 211500Z AUTO 30009KT 9SM BKN028 10/08 A2970 RMK AO1 SLP061
SPECI CYNL 211456Z AUTO 30007KT 9SM BKN027 10/08 A2969 RMK AO1 SLP059
SPECI CYNL 211446Z AUTO 31004KT 9SM SCT026 10/08 A2969 RMK AO1 SLP058
SPECI CYNL 211428Z AUTO 33004KT 9SM SCT004 OVC026 09/08 A2968 RMK AO1 SLP056
METAR CYNL 211400Z AUTO 34006KT 9SM OVC003 09/08 A2968 RMK AO1 SLP056
METAR CYNL 211300Z AUTO 33008KT 9SM OVC003 08/08 A2966 RMK AO1 SLP050
METAR CYNL 211200Z AUTO 33006KT 9SM OVC004 09/08 A2965 RMK AO1 SLP046
SPECI CYNL 211109Z AUTO 32007KT 9SM OVC004 09/08 A2964 RMK AO1 SLP040
METAR CYNL 211100Z AUTO 33008G15KT 9SM OVC005 09/08 A2964 RMK AO1 SLP040
METAR CYNL 211000Z AUTO 32006KT 9SM BKN006 OVC008 09/08 A2964 RMK AO1 SLP038
METAR CYNL 210900Z AUTO 34008G18KT 9SM OVC005 09/08 A2962 RMK AO1 SLP030
SPECI CYNL 210859Z AUTO 35008G18KT 9SM OVC005 09/08 A2962 RMK AO1 SLP030
SPECI CYNL 210839Z AUTO 34009KT 7SM OVC004 09/09 A2962 RMK AO1 SLP028
METAR CYNL 210800Z AUTO 34007G16KT 9SM OVC006 09/09 A2962 RMK AO1 SLP028
METAR CYNL 210700Z AUTO 33008G17KT 9SM OVC006 10/09 A2961 RMK AO1 SLP025
METAR CYNL 210600Z AUTO 33007KT 9SM OVC006 10/09 A2961 RMK AO1 SLP025
METAR CYNL 210500Z AUTO 34007KT 9SM OVC006 10/09 A2961 RMK AO1 SLP027
METAR CYNL 210400Z AUTO 31007KT 9SM OVC006 11/10 A2960 RMK AO1 SLP026
SPECI CYNL 210312Z AUTO 31008KT 9SM FEW006 BKN008 OVC012 12/10 A2959 RMK AO1 SLP022
METAR CYNL 210300Z AUTO 31005KT 9SM FEW007 SCT009 OVC012 12/10 A2959 RMK AO1 SLP022
SPECI CYNL 210258Z AUTO 32005KT 9SM FEW007 SCT009 OVC012 12/10 A2959 RMK AO1 SLP023
SPECI CYNL 210250Z AUTO 33005KT 9SM SCT007 BKN009 OVC011 12/10 A2959 RMK AO1 SLP023
SPECI CYNL 210247Z AUTO 33005KT 9SM SCT007 OVC010 12/10 A2959 RMK AO1 SLP023
METAR CYNL 210200Z AUTO 30003KT 9SM OVC007 12/11 A2959 RMK AO1 SLP021
METAR CYNL 210100Z AUTO 30007KT 9SM OVC008 12/10 A2959 RMK AO1 SLP022
SPECI CYNL 210039Z AUTO 30006KT 9SM BKN009 12/10 A2958 RMK AO1 SLP021
SPECI CYNL 210035Z AUTO 29005KT 9SM SCT010 BKN012 12/11 A2958 RMK AO1 SLP021
METAR CYNL 210000Z AUTO 27005KT 9SM CLR 13/11 A2957 RMK AO1 SLP017
METAR CYNL 202300Z AUTO 30005KT 9SM FEW030 15/11 A2957 RMK AO1 SLP012
METAR CYNL 202200Z AUTO 33004KT 9SM CLR 17/11 A2956 RMK AO1 SLP009
METAR CYNL 202100Z AUTO 28005KT 9SM CLR 17/10 A2956 RMK AO1 SLP010
METAR CYNL 202000Z AUTO 23006KT 9SM CLR 17/10 A2956 RMK AO1 SLP010
METAR CYNL 201900Z AUTO 20004KT 9SM FEW210 16/10 A2956 RMK AO1 SLP010
METAR CYNL 201800Z AUTO 20004KT 9SM CLR 14/09 A2957 RMK AO1 PRESFR SLP015
METAR CYNL 201700Z AUTO 19005KT 9SM CLR 13/09 A2959 RMK AO1 SLP022
METAR CYNL 201600Z AUTO 17002KT 9SM CLR 12/09 A2959 RMK AO1 SLP025
METAR CYNL 201500Z AUTO 00000KT 9SM CLR 11/09 A2960 RMK AO1 SLP026
METAR CYNL 201400Z AUTO 11004KT 9SM CLR 10/09 A2961 RMK AO1 SLP032
METAR CYNL 201300Z AUTO 07005KT 8SM CLR 09/09 A2962 RMK AO1 PRESFR SLP035
METAR CYNL 201200Z AUTO 03004KT 9SM CLR 10/09 A2964 RMK AO1 SLP038
METAR CYNL 201100Z AUTO 00000KT 9SM CLR 09/08 A2965 RMK AO1 SLP039
METAR CYNL 201000Z AUTO 00000KT 9SM CLR 09/08 A2966 RMK AO1 PRESFR SLP040
METAR CYNL 200900Z AUTO 02003KT 9SM CLR 08/07 A2970 RMK AO1 SLP052
METAR CYNL 200800Z AUTO 06003KT 9SM CLR 07/07 A2970 RMK AO1 PRESFR SLP053
METAR CYNL 200700Z AUTO 00000KT 9SM CLR 07/06 A2973 RMK AO1 SLP065
METAR CYNL 200600Z AUTO 23002KT 9SM CLR 09/07 A2973 RMK AO1 SLP066
METAR CYNL 200500Z AUTO 25004KT 9SM CLR 09/08 A2974 RMK AO1 SLP069
METAR CYNL 200400Z AUTO 25003KT 9SM CLR 10/08 A2973 RMK AO1 SLP070
METAR CYNL 200300Z AUTO 23003KT 9SM CLR 11/08 A2973 RMK AO1 SLP071
METAR CYNL 200200Z AUTO 23003KT 9SM CLR 13/09 A2973 RMK AO1 SLP071